DateTimeFlightDept.Dept. DateDept. TimeDest.Dest. DateDest. TimePlane TypeAltitude (ft)Speed (mph)LatitudeLongitudeAltitude (m)PressureTemp (C)Dewpt (C)RELH (%)MIXRTCRITDistance (km)Contrail Layer
10/23/2006 00:00:57 AAR235 ORD 10/22/2006 06:26:00 RKSI 10/23/2006 00:50:00 B744 34300 490 65.3434 -149.083 10454.6 228.5 -46.9 -58. 27. 0.07 -52.19 79.6 No
10/23/2006 00:00:57 FTA530 FAI 10/22/2006 23:51:00 ANC 10/23/2006 01:02:00 B190 15700 190 64.4667 -148.567 4785.4 532.5 -28.7 -31.2 78.6 0.54 -40.43 55. No
10/23/2006 00:01:57 FTA530 FAI 10/22/2006 23:51:00 ANC 10/23/2006 01:02:00 B190 15700 190 64.404 -148.595 4785.4 532.5 -28.7 -31.2 78.6 0.54 -40.43 61.4 No
10/23/2006 00:02:56 FTA530 FAI 10/22/2006 23:51:00 ANC 10/23/2006 01:02:00 B190 17000 200 64.3635 -148.616 5181.6 504.2 -31.4 -35. 71.3 0.39 -41.72 65.7 No
10/23/2006 00:03:57 FTA530 FAI 10/22/2006 23:51:00 ANC 10/23/2006 01:02:00 B190 19700 200 64.3167 -148.667 6004.6 448.2 -38.7 -43.7 59.7 0.18 -43.84 71.3 No
10/23/2006 00:04:56 FTA530 FAI 10/22/2006 23:51:00 ANC 10/23/2006 01:02:00 B190 20500 200 64.25 -148.717 6248.4 432.8 -40.3 -46.3 53.1 0.14 -44.62 78.9 No
10/23/2006 00:05:57 FTA530 FAI 10/22/2006 23:51:00 ANC 10/23/2006 01:02:00 B190 21000 220 64.2 -148.767 6400.8 423.4 -41.2 -48. 48.3 0.12 -45.13 84.9 No
10/23/2006 00:06:57 FTA530 FAI 10/22/2006 23:51:00 ANC 10/23/2006 01:02:00 B190 21000 230 64.1333 -148.817 6400.8 423.4 -41.2 -48. 48.3 0.12 -45.13 92.5 No
10/23/2006 00:07:56 FTA530 FAI 10/22/2006 23:51:00 ANC 10/23/2006 01:02:00 B190 21000 250 64.0667 -148.867 6400.8 423.4 -41.2 -48. 48.3 0.12 -45.13 100.1 No
10/23/2006 00:08:57 FTA530 FAI 10/22/2006 23:51:00 ANC 10/23/2006 01:02:00 B190 21000 250 64. -148.9 6400.8 423.4 -41.2 -48. 48.3 0.12 -45.13 107.4 No
10/23/2006 00:09:57 FTA544 FAI 10/22/2006 23:58:00 FYU 10/23/2006 00:39:00 B190 15000 230 65.2 -147.417 4572. 548.2 -27.3 -29.7 80. 0.6 -39.97 43.4 No
10/23/2006 00:10:57 FTA544 FAI 10/22/2006 23:58:00 FYU 10/23/2006 00:39:00 B190 15000 260 65.2667 -147.317 4572. 548.2 -27.3 -29.7 80. 0.6 -39.97 52.1 No
10/23/2006 00:11:57 FTA544 FAI 10/22/2006 23:58:00 FYU 10/23/2006 00:39:00 B190 15000 260 65.3167 -147.217 4572. 548.2 -27.3 -29.7 80. 0.6 -39.97 59.3 No
10/23/2006 00:12:57 FTA544 FAI 10/22/2006 23:58:00 FYU 10/23/2006 00:39:00 B190 15000 260 65.3833 -147.133 4572. 548.2 -27.3 -29.7 80. 0.6 -39.97 67.7 No
10/23/2006 00:13:56 FTA544 FAI 10/22/2006 23:58:00 FYU 10/23/2006 00:39:00 B190 15000 260 65.45 -147.05 4572. 548.2 -27.3 -29.7 80. 0.6 -39.97 76.1 No
10/23/2006 00:14:57 FTA544 FAI 10/22/2006 23:58:00 FYU 10/23/2006 00:39:00 B190 15000 260 65.5167 -146.967 4572. 548.2 -27.3 -29.7 80. 0.6 -39.97 84.5 No
10/23/2006 00:15:56 FTA544 FAI 10/22/2006 23:58:00 FYU 10/23/2006 00:39:00 B190 15000 260 65.5667 -146.883 4572. 548.2 -27.3 -29.7 80. 0.6 -39.97 91.3 No
10/23/2006 00:16:56 FTA544 FAI 10/22/2006 23:58:00 FYU 10/23/2006 00:39:00 B190 15000 260 65.6333 -146.783 4572. 548.2 -27.3 -29.7 80. 0.6 -39.97 100. No
10/23/2006 00:17:57 FTA544 FAI 10/22/2006 23:58:00 FYU 10/23/2006 00:39:00 B190 15000 260 65.7 -146.683 4572. 548.2 -27.3 -29.7 80. 0.6 -39.97 108.8 No
10/23/2006 00:29:57 FTA15 ANC 10/22/2006 23:46:00 FAI 10/23/2006 00:47:00 B190 20000 270 64.0167 -148.383 6096. 442.2 -39.5 -44.6 57.9 0.16 -44.1 96.7 No
10/23/2006 00:30:57 ASA93 ANC 10/24/2006 00:03:00 FAI 10/23/2006 00:42:03 B737 32600 360 64.0333 -148.633 9936.5 246.9 -48.5 -58.6 29.7 0.06 -51.34 98.7 No
10/23/2006 00:30:57 FTA15 ANC 10/22/2006 23:46:00 FAI 10/23/2006 00:47:00 B190 20000 270 64.106 -148.359 6096. 442.2 -39.5 -44.6 57.9 0.16 -44.1 86.8 No
10/23/2006 00:31:57 ASA93 ANC 10/24/2006 00:03:00 FAI 10/23/2006 00:41:46 B737 32600 360 64.1983 -148.633 9936.5 246.9 -48.5 -58.6 29.7 0.06 -51.34 82. No
10/23/2006 00:31:57 FTA15 ANC 10/22/2006 23:46:00 FAI 10/23/2006 00:41:28 B190 20000 270 64.1785 -148.34 6096. 442.2 -39.4 -44.6 57.9 0.16 -44.1 78.8 No
10/23/2006 00:32:57 ASA93 ANC 10/24/2006 00:03:00 FAI 10/23/2006 00:42:38 B737 32600 360 64.2983 -148.633 9936.5 246.9 -48.5 -58.6 29.7 0.06 -51.34 72.2 No
10/23/2006 00:32:57 FTA15 ANC 10/22/2006 23:46:00 FAI 10/23/2006 00:42:20 B190 20000 270 64.2529 -148.331 6096. 442.2 -39.4 -44.6 57.9 0.16 -44.1 70.8 No
10/23/2006 00:33:57 ACA7 YVR 10/22/2006 21:58:00 VHHH 10/23/2006 10:27:00 A343 32000 460 64.0167 -145.85 9753.6 253.7 -49.4 -59. 31.2 0.05 -51.02 132.8 No
10/23/2006 00:33:57 ASA93 ANC 10/24/2006 00:03:00 FAI 10/23/2006 00:42:32 B737 32600 360 64.3983 -148.633 9936.5 246.9 -48.5 -58.6 29.7 0.06 -51.34 63. No
10/23/2006 00:33:57 FTA15 ANC 10/22/2006 23:46:00 FAI 10/23/2006 00:42:20 B190 20000 270 64.3273 -148.322 6096. 442.2 -39.4 -44.6 57.9 0.16 -44.1 62.9 No
10/23/2006 00:34:57 ACA7 YVR 10/22/2006 21:58:00 VHHH 10/23/2006 10:27:00 A343 32000 450 64.0833 -146.1 9753.6 253.7 -49.4 -59. 31.2 0.05 -51.02 119.2 No
10/23/2006 00:34:57 ASA93 ANC 10/24/2006 00:03:00 FAI 10/23/2006 00:42:42 B737 32600 360 64.4983 -148.633 9936.5 246.9 -48.5 -58.6 29.7 0.06 -51.34 54.4 No
10/23/2006 00:34:57 FTA15 ANC 10/22/2006 23:46:00 FAI 10/23/2006 00:42:20 B190 20000 270 64.3915 -148.29 6096. 442.2 -39.4 -44.6 57.9 0.16 -44.1 55.7 No
10/23/2006 00:35:57 ACA7 YVR 10/22/2006 21:58:00 VHHH 10/23/2006 10:27:00 A343 32000 470 64.1333 -146.4 9753.6 253.6 -49.4 -59. 31.2 0.05 -51.02 105.6 No
10/23/2006 00:35:57 ASA93 ANC 10/24/2006 00:03:00 FAI 10/23/2006 00:42:19 B737 32600 360 64.5528 -148.586 9936.5 246.9 -48.5 -58.6 29.7 0.06 -51.34 48.5 No
10/23/2006 00:35:57 FTA15 ANC 10/22/2006 23:46:00 FAI 10/23/2006 00:42:20 B190 20000 270 64.4561 -148.258 6096. 442.2 -39.4 -44.6 57.9 0.16 -44.1 48.5 No
10/23/2006 00:36:57 ACA7 YVR 10/22/2006 21:58:00 VHHH 10/23/2006 10:27:00 A343 32000 460 64.1833 -146.667 9753.6 253.6 -49.4 -59. 31.2 0.05 -51.02 93.4 No
10/23/2006 00:36:57 ASA93 ANC 10/24/2006 00:03:00 FAI 10/23/2006 00:41:54 B737 32600 360 64.6122 -148.529 9936.5 246.9 -48.5 -58.6 29.7 0.06 -51.34 42. No
10/23/2006 00:36:57 FTA15 ANC 10/22/2006 23:46:00 FAI 10/23/2006 00:42:20 B190 20000 270 64.521 -148.222 6096. 442.2 -39.4 -44.6 57.9 0.16 -44.1 41.2 No
10/23/2006 00:37:57 ACA7 YVR 10/22/2006 21:58:00 VHHH 10/23/2006 10:27:00 A343 32000 460 64.25 -146.933 9753.6 253.6 -49.4 -59. 31.2 0.05 -51.02 80.1 No
10/23/2006 00:37:57 ASA93 ANC 10/24/2006 00:03:00 FAI 10/23/2006 00:41:54 B737 32600 360 64.6707 -148.461 9936.5 246.8 -48.5 -58.6 29.7 0.06 -51.34 35.5 No
10/23/2006 00:37:57 FTA15 ANC 10/22/2006 23:46:00 FAI 10/23/2006 00:42:20 B190 20000 270 64.5862 -148.182 6096. 442.2 -39.4 -44.6 57.8 0.16 -44.1 33.9 No
10/23/2006 00:38:57 ACA7 YVR 10/22/2006 21:58:00 VHHH 10/23/2006 10:27:00 A343 32000 450 64.3 -147.217 9753.6 253.6 -49.4 -59. 31.2 0.05 -51.02 68.7 No
10/23/2006 00:38:57 ASA93 ANC 10/24/2006 00:03:00 FAI 10/23/2006 00:41:54 B737 32600 360 64.7269 -148.378 9936.5 246.8 -48.5 -58.6 29.7 0.06 -51.34 28.8 No
10/23/2006 00:38:57 FTA15 ANC 10/22/2006 23:46:00 FAI 10/23/2006 00:42:20 B190 20000 270 64.6521 -148.138 6096. 442.2 -39.4 -44.6 57.8 0.16 -44.1 26.5 No
10/23/2006 00:39:57 ACA7 YVR 10/22/2006 21:58:00 VHHH 10/23/2006 10:27:00 A343 32000 460 64.35 -147.467 9753.6 253.6 -49.4 -59. 31.2 0.05 -51.02 59.1 No
10/23/2006 00:39:57 ASA93 ANC 10/24/2006 00:03:00 FAI 10/23/2006 00:41:54 B737 32600 360 64.7809 -148.267 9936.5 246.8 -48.5 -58.6 29.7 0.06 -51.34 21.4 No
10/23/2006 00:39:57 FTA15 ANC 10/22/2006 23:46:00 FAI 10/23/2006 00:42:20 B190 20000 270 64.7204 -148.086 6096. 442.2 -39.4 -44.6 57.8 0.16 -44.1 18.8 No
10/23/2006 00:40:56 ACA7 YVR 10/22/2006 21:58:00 VHHH 10/23/2006 10:27:00 A343 32000 450 64.4 -147.733 9753.6 253.6 -49.4 -59. 31.2 0.05 -51.02 51. No
10/23/2006 00:40:56 ASA93 ANC 10/24/2006 00:03:00 FAI 10/23/2006 00:41:54 B737 32600 360 64.7809 -148.267 9936.5 246.8 -48.5 -58.6 29.7 0.06 -51.34 21.4 No
10/23/2006 00:40:56 FTA15 ANC 10/22/2006 23:46:00 FAI 10/23/2006 00:42:20 B190 20000 270 64.7954 -148.021 6096. 442.2 -39.4 -44.6 57.8 0.16 -44.1 10.6 No
10/23/2006 00:41:57 ACA7 YVR 10/22/2006 21:58:00 VHHH 10/23/2006 10:27:00 A343 32000 450 64.4704 -147.884 9753.6 253.6 -49.4 -59. 31.3 0.05 -51.02 42.9 No
10/23/2006 00:41:57 FTA15 ANC 10/22/2006 23:46:00 FAI 10/23/2006 00:42:20 B190 20000 270 64.9248 -147.882 6096. 442.1 -39.4 -44.6 57.8 0.16 -44.1 7.8 No
10/23/2006 00:42:57 ACA7 YVR 10/22/2006 21:58:00 VHHH 10/23/2006 10:27:00 A343 32000 460 64.5 -148.3 9753.6 253.6 -49.4 -59. 31.3 0.05 -51.02 45. No
10/23/2006 00:43:56 ACA7 YVR 10/22/2006 21:58:00 VHHH 10/23/2006 10:27:00 A343 32000 460 64.55 -148.567 9753.6 253.6 -49.4 -59. 31.3 0.05 -51.02 48. No
10/23/2006 00:44:56 ACA7 YVR 10/22/2006 21:58:00 VHHH 10/23/2006 10:27:00 A343 32000 460 64.6 -148.833 9753.6 253.6 -49.4 -59. 31.3 0.05 -51.02 54.5 No
10/23/2006 00:45:57 ACA7 YVR 10/22/2006 21:58:00 VHHH 10/23/2006 10:27:00 A343 32000 460 64.65 -149.117 9753.6 253.6 -49.4 -59. 31.3 0.05 -51.02 64.1 No
10/23/2006 00:46:57 ACA7 YVR 10/22/2006 21:58:00 VHHH 10/23/2006 10:27:00 A343 32000 470 64.7 -149.4 9753.6 253.6 -49.4 -59. 31.3 0.05 -51.02 75.3 No
10/23/2006 00:47:57 ACA7 YVR 10/22/2006 21:58:00 VHHH 10/23/2006 10:27:00 A343 32000 460 64.75 -149.683 9753.6 253.6 -49.4 -59. 31.3 0.05 -51.02 87.4 No
10/23/2006 00:53:57 CON232 SCC 10/23/2006 00:12:00 ANC 10/23/2006 01:45:00 B732 33000 420 65.6667 -149.617 10058.4 242.5 -48.1 -58.5 29.1 0.06 -51.54 122.9 No
10/23/2006 00:54:57 CON232 SCC 10/23/2006 00:12:00 ANC 10/23/2006 01:45:00 B732 33000 410 65.55 -149.633 10058.4 242.5 -48.1 -58.5 29.1 0.06 -51.54 114.3 No
10/23/2006 00:55:56 CON232 SCC 10/23/2006 00:12:00 ANC 10/23/2006 01:45:00 B732 33000 420 65.4333 -149.667 10058.4 242.5 -48.1 -58.5 29.1 0.06 -51.54 107.2 No
10/23/2006 00:56:57 CON232 SCC 10/23/2006 00:12:00 ANC 10/23/2006 01:45:00 B732 33000 410 65.3 -149.7 10058.4 242.5 -48.2 -58.5 29.1 0.06 -51.54 100.4 No
10/23/2006 00:57:57 CON232 SCC 10/23/2006 00:12:00 ANC 10/23/2006 01:45:00 B732 33000 410 65.1833 -149.733 10058.4 242.5 -48.2 -58.5 29.1 0.06 -51.54 96.2 No
10/23/2006 00:58:57 CON232 SCC 10/23/2006 00:12:00 ANC 10/23/2006 01:45:00 B732 33000 410 65.0667 -149.75 10058.4 242.5 -48.2 -58.5 29.1 0.06 -51.54 92.8 No
10/23/2006 00:59:57 CON232 SCC 10/23/2006 00:12:00 ANC 10/23/2006 01:45:00 B732 33000 410 64.95 -149.783 10058.4 242.5 -48.2 -58.5 29.1 0.06 -51.54 92. No
10/23/2006 01:00:57 CON232 SCC 10/23/2006 00:12:00 ANC 10/23/2006 01:45:00 B732 33000 410 64.85 -149.8 10058.4 242.5 -48.2 -58.5 29.1 0.06 -51.54 92.2 No
10/23/2006 01:01:57 CON232 SCC 10/23/2006 00:12:00 ANC 10/23/2006 01:45:00 B732 33000 410 64.7333 -149.833 10058.4 242.5 -48.2 -58.5 29.1 0.06 -51.54 94.7 No
10/23/2006 01:02:57 CON232 SCC 10/23/2006 00:12:00 ANC 10/23/2006 01:45:00 B732 33000 410 64.6167 -149.867 10058.4 242.5 -48.2 -58.5 29.1 0.06 -51.54 99. No
10/23/2006 01:03:57 CON232 SCC 10/23/2006 00:12:00 ANC 10/23/2006 01:45:00 B732 33000 420 64.5 -149.883 10058.4 242.5 -48.2 -58.5 29.1 0.06 -51.54 103.9 No
10/23/2006 01:04:56 CON232 SCC 10/23/2006 00:12:00 ANC 10/23/2006 01:45:00 B732 33000 420 64.3833 -149.917 10058.4 242.5 -48.2 -58.5 29.1 0.06 -51.54 110.9 No
10/23/2006 01:05:57 CON232 SCC 10/23/2006 00:12:00 ANC 10/23/2006 01:45:00 B732 33000 420 64.2833 -149.933 10058.4 242.5 -48.2 -58.5 29.1 0.06 -51.54 117.3 No
10/23/2006 01:06:57 CON232 SCC 10/23/2006 00:12:00 ANC 10/23/2006 01:45:00 B732 33000 410 64.1667 -149.95 10058.4 242.5 -48.2 -58.5 29.1 0.06 -51.54 125.4 No
10/23/2006 01:23:57 N983C ANC 10/23/2006 00:37:00 FAI 10/23/2006 01:43:00 BE20 24000 290 64.0167 -148.4 7315.2 369.1 -47.2 -55.6 38.7 0.05 -47.02 96.9 Yes
10/23/2006 01:24:57 N983C ANC 10/23/2006 00:37:00 FAI 10/23/2006 01:43:00 BE20 24000 290 64.127 -148.377 7315.2 369.1 -47.2 -55.6 38.7 0.05 -47.01 84.8 Yes
10/23/2006 01:25:57 N983C ANC 10/23/2006 00:37:00 FAI 10/23/2006 01:34:43 BE20 24000 290 64.2058 -148.36 7315.2 369.1 -47.2 -55.6 38.8 0.05 -47.01 76.2 Yes
10/23/2006 01:26:57 N983C ANC 10/23/2006 00:37:00 FAI 10/23/2006 01:34:43 BE20 24000 290 64.2846 -148.343 7315.2 369.1 -47.2 -55.6 38.8 0.05 -47.01 67.7 Yes
10/23/2006 01:27:57 N983C ANC 10/23/2006 00:37:00 FAI 10/23/2006 01:34:43 BE20 24000 290 64.3634 -148.326 7315.2 369.1 -47.2 -55.5 38.9 0.05 -47.01 59.2 Yes
10/23/2006 01:28:56 N983C ANC 10/23/2006 00:37:00 FAI 10/23/2006 01:34:43 BE20 24000 290 64.4415 -148.292 7315.2 369.1 -47.2 -55.5 38.9 0.05 -47. 50.6 Yes
10/23/2006 01:29:57 N983C ANC 10/23/2006 00:37:00 FAI 10/23/2006 01:34:43 BE20 24000 290 64.5199 -148.253 7315.2 369.1 -47.2 -55.5 38.9 0.05 -47. 42. Yes
10/23/2006 01:30:57 N983C ANC 10/23/2006 00:37:00 FAI 10/23/2006 01:34:43 BE20 24000 290 64.5979 -148.208 7315.2 369.1 -47.2 -55.5 39. 0.05 -47. 33.3 Yes
10/23/2006 01:31:56 N983C ANC 10/23/2006 00:37:00 FAI 10/23/2006 01:34:43 BE20 24000 290 64.6764 -148.155 7315.2 369.1 -47.2 -55.5 39. 0.05 -47. 24.7 Yes
10/23/2006 01:32:57 N983C ANC 10/23/2006 00:37:00 FAI 10/23/2006 01:34:43 BE20 24000 290 64.7548 -148.085 7315.2 369.1 -47.2 -55.5 39.1 0.05 -47. 15.8 Yes
10/23/2006 01:33:57 N983C ANC 10/23/2006 00:37:00 FAI 10/23/2006 01:34:43 BE20 24000 290 64.832 -147.961 7315.2 369.1 -47.2 -55.5 39.1 0.05 -46.99 5.9 Yes
10/23/2006 01:38:56 ASA180 FAI 10/23/2006 01:33:00 ANC 10/23/2006 02:23:00 B737 16000 350 64.5167 -148.35 4876.8 525.8 -29.4 -32.6 74.6 0.48 -40.97 44.5 No
10/23/2006 01:39:57 ASA180 FAI 10/23/2006 01:33:00 ANC 10/23/2006 02:23:00 B737 19800 370 64.4167 -148.433 6035. 446.1 -38.8 -43.9 58.7 0.18 -43.95 56.1 No
10/23/2006 01:40:56 ASA180 FAI 10/23/2006 01:33:00 ANC 10/23/2006 02:23:00 B737 19800 370 64.3063 -148.476 6035. 446.1 -38.8 -43.9 58.7 0.18 -43.95 67.9 No
10/23/2006 01:41:57 ASA180 FAI 10/23/2006 01:33:00 ANC 10/23/2006 02:23:00 B737 22600 380 64.2181 -148.555 6888.5 393.7 -44.2 -52.5 40. 0.08 -46.31 78.4 No
10/23/2006 01:42:57 ASA180 FAI 10/23/2006 01:33:00 ANC 10/23/2006 02:23:00 B737 25100 390 64.097 -148.634 7650.5 350.7 -49.2 -57. 40.7 0.05 -47.42 92.2 Yes
10/23/2006 01:43:56 ASA180 FAI 10/23/2006 01:33:00 ANC 10/23/2006 02:23:00 B737 27300 410 63.9937 -148.724 8321. 316.8 -52.6 -59.5 44.2 0.04 -48.24 104.4 Yes
10/23/2006 02:01:56 FTA531 ANC 10/23/2006 01:20:00 FAI 10/23/2006 02:31:00 B190 20000 290 63.9611 -148.579 6096. 442. -39.3 -44.5 57.5 0.16 -44.13 105.3 No
10/23/2006 02:02:57 FTA531 ANC 10/23/2006 01:20:00 FAI 10/23/2006 02:31:00 B190 20000 290 64.0266 -148.525 6096. 442. -39.3 -44.5 57.5 0.16 -44.13 97.6 No
10/23/2006 02:03:57 FTA531 ANC 10/23/2006 01:20:00 FAI 10/23/2006 02:31:00 B190 20000 290 64.1288 -148.483 6096. 442. -39.3 -44.5 57.5 0.16 -44.13 86.2 No
10/23/2006 02:04:57 FTA531 ANC 10/23/2006 01:20:00 FAI 10/23/2006 02:14:13 B190 20000 290 64.2076 -148.467 6096. 442. -39.3 -44.5 57.5 0.16 -44.13 77.8 No
10/23/2006 02:05:57 FTA531 ANC 10/23/2006 01:20:00 FAI 10/23/2006 02:14:13 B190 20000 290 64.2878 -148.46 6096. 442. -39.3 -44.5 57.5 0.16 -44.13 69.5 No
10/23/2006 02:06:57 FTA531 ANC 10/23/2006 01:20:00 FAI 10/23/2006 02:14:13 B190 20000 290 64.3681 -148.453 6096. 442. -39.3 -44.5 57.5 0.16 -44.13 61.3 No
10/23/2006 02:07:56 COA7 IAH 10/22/2006 16:17:00 RJAA 10/23/2006 05:44:24 B772 34000 490 65.7393 -148.731 10363.2 231.5 -47.2 -58.2 27.3 0.06 -52.05 106.7 No
10/23/2006 02:07:56 FTA531 ANC 10/23/2006 01:20:00 FAI 10/23/2006 02:14:13 B190 20000 290 64.4438 -148.42 6096. 442. -39.3 -44.5 57.5 0.16 -44.13 53.2 No
10/23/2006 02:08:57 COA7 IAH 10/22/2006 16:17:00 RJAA 10/23/2006 05:44:24 B772 34000 490 65.6561 -148.515 10363.2 231.5 -47.2 -58.2 27.3 0.06 -52.05 94.3 No
10/23/2006 02:08:57 FTA531 ANC 10/23/2006 01:20:00 FAI 10/23/2006 02:14:13 B190 20000 290 64.5194 -148.383 6096. 442. -39.3 -44.5 57.5 0.16 -44.13 45.1 No
10/23/2006 02:09:57 COA7 IAH 10/22/2006 16:17:00 RJAA 10/23/2006 05:44:24 B772 34000 490 65.5724 -148.297 10363.2 231.5 -47.2 -58.2 27.3 0.06 -52.05 82.4 No
10/23/2006 02:09:57 FTA531 ANC 10/23/2006 01:20:00 FAI 10/23/2006 02:14:13 B190 20000 290 64.5957 -148.341 6096. 442. -39.3 -44.5 57.5 0.16 -44.13 37.1 No
10/23/2006 02:10:57 COA7 IAH 10/22/2006 16:17:00 RJAA 10/23/2006 05:44:24 B772 34000 490 65.4881 -148.077 10363.2 231.5 -47.2 -58.2 27.3 0.06 -52.05 71.1 No
10/23/2006 02:10:57 FTA531 ANC 10/23/2006 01:20:00 FAI 10/23/2006 02:14:13 B190 20000 290 64.6726 -148.289 6096. 442. -39.3 -44.5 57.5 0.16 -44.13 29.1 No
10/23/2006 02:11:57 COA7 IAH 10/22/2006 16:17:00 RJAA 10/23/2006 05:44:24 B772 34000 490 65.4033 -147.856 10363.2 231.5 -47.2 -58.2 27.3 0.06 -52.05 60.8 No
10/23/2006 02:11:57 FTA531 ANC 10/23/2006 01:20:00 FAI 10/23/2006 02:14:13 B190 20000 290 64.7494 -148.22 6096. 442. -39.3 -44.5 57.5 0.16 -44.13 21.2 No
10/23/2006 02:12:57 COA7 IAH 10/22/2006 16:17:00 RJAA 10/23/2006 05:44:24 B772 34000 490 65.314 -147.635 10363.2 231.5 -47.2 -58.2 27.3 0.06 -52.05 51.9 No
10/23/2006 02:12:57 FTA531 ANC 10/23/2006 01:20:00 FAI 10/23/2006 02:14:13 B190 20000 290 64.8329 -148.018 6096. 442. -39.3 -44.5 57.5 0.16 -44.13 8.4 No
10/23/2006 02:13:57 COA7 IAH 10/22/2006 16:17:00 RJAA 10/23/2006 05:44:24 B772 34000 490 65.2241 -147.412 10363.2 231.5 -47.2 -58.2 27.3 0.06 -52.05 45.8 No
10/23/2006 02:13:57 FTA531 ANC 10/23/2006 01:20:00 FAI 10/23/2006 02:14:13 B190 20000 290 64.8329 -148.018 6096. 442. -39.3 -44.5 57.4 0.16 -44.13 8.4 No
10/23/2006 02:14:56 COA7 IAH 10/22/2006 16:17:00 RJAA 10/23/2006 05:44:24 B772 34000 490 65.1337 -147.189 10363.2 231.5 -47.2 -58.2 27.3 0.06 -52.05 43.9 No
10/23/2006 02:15:57 COA7 IAH 10/22/2006 16:17:00 RJAA 10/23/2006 05:44:24 B772 34000 490 65.0426 -146.963 10363.2 231.5 -47.2 -58.2 27.3 0.06 -52.05 46.7 No
10/23/2006 02:16:56 COA7 IAH 10/22/2006 16:17:00 RJAA 10/23/2006 05:44:24 B772 34000 490 64.9509 -146.736 10363.2 231.4 -47.2 -58.2 27.3 0.06 -52.05 53.6 No
10/23/2006 02:17:57 COA7 IAH 10/22/2006 16:17:00 RJAA 10/23/2006 05:44:24 B772 34000 490 64.8586 -146.508 10363.2 231.4 -47.2 -58.2 27.3 0.06 -52.05 63.4 No
10/23/2006 02:18:57 COA7 IAH 10/22/2006 16:17:00 RJAA 10/23/2006 05:44:24 B772 34000 490 64.7657 -146.278 10363.2 231.4 -47.2 -58.2 27.3 0.06 -52.05 74.9 No
10/23/2006 02:19:56 COA7 IAH 10/22/2006 16:17:00 RJAA 10/23/2006 05:44:24 B772 34000 490 64.6681 -146.048 10363.2 231.4 -47.2 -58.2 27.3 0.06 -52.05 87.6 No
10/23/2006 02:20:57 COA7 IAH 10/22/2006 16:17:00 RJAA 10/23/2006 05:44:24 B772 34000 490 64.5698 -145.816 10363.2 231.4 -47.2 -58.2 27.3 0.06 -52.05 101.2 No
10/23/2006 03:02:56 ASA146 BRW 10/23/2006 02:05:00 FAI 10/23/2006 03:14:58 B73Q 35000 400 65.7 -148.617 10668. 220.6 -46.3 -58. 25.2 0.07 -52.59 100.6 No
10/23/2006 03:03:56 ASA146 BRW 10/23/2006 02:05:00 FAI 10/23/2006 03:15:15 B73Q 35000 370 65.6167 -148.5 10668. 220.6 -46.3 -58. 25.2 0.07 -52.59 90. No
10/23/2006 03:04:56 ASA146 BRW 10/23/2006 02:05:00 FAI 10/23/2006 03:15:20 B73Q 35000 360 65.5333 -148.367 10668. 220.6 -46.3 -58. 25.2 0.07 -52.59 79.2 No
10/23/2006 03:05:57 ASA146 BRW 10/23/2006 02:05:00 FAI 10/23/2006 03:16:06 B73Q 35000 360 65.69 -148.367 10668. 220.6 -46.3 -58. 25.2 0.07 -52.59 95.9 No
10/23/2006 03:12:57 FTA570 FAI 10/23/2006 03:03:00 ANC 10/23/2006 04:13:00 B190 15400 210 64.4 -148.667 4693.9 539.2 -28.5 -31.1 78.4 0.54 -40.32 63.7 No
10/23/2006 03:13:56 ASA146 BRW 10/23/2006 02:05:00 FAI 10/23/2006 03:16:06 B73Q 35000 360 65.6415 -149.235 10668. 220.6 -46.3 -58. 25.2 0.07 -52.59 109.1 No
10/23/2006 03:13:56 FTA570 FAI 10/23/2006 03:03:00 ANC 10/23/2006 04:13:00 B190 16700 210 64.35 -148.7 5090.2 510.5 -30.8 -35.4 66.6 0.39 -41.98 69.2 No
10/23/2006 03:14:57 ASA146 BRW 10/23/2006 02:05:00 FAI 10/23/2006 03:16:06 B73Q 35000 360 65.0412 -148.613 10668. 220.5 -46.3 -58. 25.2 0.07 -52.59 41.5 No
10/23/2006 03:14:57 FTA570 FAI 10/23/2006 03:03:00 ANC 10/23/2006 04:13:00 B190 17700 210 64.3 -148.75 5395. 489.1 -33.2 -38.6 59.8 0.29 -42.93 75.1 No
10/23/2006 03:15:57 ASA146 BRW 10/23/2006 02:05:00 FAI 10/23/2006 03:16:06 B73Q 35000 360 65.0412 -148.613 10668. 220.5 -46.3 -58. 25.2 0.07 -52.6 41.5 No
10/23/2006 03:15:57 FTA570 FAI 10/23/2006 03:03:00 ANC 10/23/2006 04:13:00 B190 19000 210 64.2333 -148.783 5791.2 461.9 -36.5 -41.7 59.3 0.21 -43.56 82.1 No
10/23/2006 03:16:56 FTA570 FAI 10/23/2006 03:03:00 ANC 10/23/2006 04:13:00 B190 20100 220 64.1667 -148.833 6126.5 440.1 -39.4 -44.7 56.6 0.16 -44.23 89.7 No
10/23/2006 03:17:57 FTA570 FAI 10/23/2006 03:03:00 ANC 10/23/2006 04:13:00 B190 21000 210 64.1167 -148.867 6400.8 423.2 -41.1 -47.4 51.3 0.13 -44.96 95.2 No
10/23/2006 03:18:56 FTA570 FAI 10/23/2006 03:03:00 ANC 10/23/2006 04:13:00 B190 21000 240 64.05 -148.917 6400.8 423.2 -41.1 -47.4 51.3 0.13 -44.96 102.8 No
10/23/2006 03:19:56 FTA570 FAI 10/23/2006 03:03:00 ANC 10/23/2006 04:13:00 B190 21000 250 63.9833 -148.95 6400.8 423.2 -41.1 -47.4 51.3 0.13 -44.96 110.1 No
10/23/2006 03:28:56 ASA127 ANC 10/23/2006 03:02:00 FAI 10/23/2006 03:45:54 B737 34300 370 63.9826 -148.557 10454.6 228. -46.9 -58.2 26.6 0.06 -52.22 102.7 No
10/23/2006 03:29:57 ASA127 ANC 10/23/2006 03:02:00 FAI 10/23/2006 03:45:54 B737 34300 350 64.093 -148.472 10454.6 228. -46.9 -58.2 26.6 0.06 -52.22 89.8 No
10/23/2006 03:30:56 ASA127 ANC 10/23/2006 03:02:00 FAI 10/23/2006 03:40:27 B737 34300 340 64.1944 -148.45 10454.6 228. -46.9 -58.2 26.6 0.06 -52.22 78.9 No
10/23/2006 03:31:56 ASA127 ANC 10/23/2006 03:02:00 FAI 10/23/2006 03:41:19 B737 34300 340 64.2889 -148.45 10454.6 228. -46.9 -58.2 26.6 0.06 -52.22 69.2 No
10/23/2006 03:32:56 ASA127 ANC 10/23/2006 03:02:00 FAI 10/23/2006 03:41:19 B737 34300 340 64.3833 -148.45 10454.6 228. -46.9 -58.2 26.6 0.06 -52.22 59.7 No
10/23/2006 03:33:56 ASA127 ANC 10/23/2006 03:02:00 FAI 10/23/2006 03:41:19 B737 34300 340 64.4778 -148.45 10454.6 228. -46.9 -58.2 26.6 0.06 -52.22 50.7 No
10/23/2006 03:34:56 ASA127 ANC 10/23/2006 03:02:00 FAI 10/23/2006 03:41:19 B737 34300 340 64.5722 -148.45 10454.6 228. -46.9 -58.2 26.6 0.06 -52.23 42.4 No
10/23/2006 03:35:56 ASA127 ANC 10/23/2006 03:02:00 FAI 10/23/2006 03:41:19 B737 34300 340 64.6232 -148.409 10454.6 228. -46.9 -58.2 26.6 0.06 -52.23 37. No
10/23/2006 03:36:57 ASA127 ANC 10/23/2006 03:02:00 FAI 10/23/2006 03:41:19 B737 34300 340 64.6744 -148.361 10454.6 228. -46.9 -58.2 26.6 0.06 -52.23 31.5 No
10/23/2006 03:37:56 ASA127 ANC 10/23/2006 03:02:00 FAI 10/23/2006 03:41:19 B737 34300 340 64.7248 -148.303 10454.6 228. -46.9 -58.2 26.6 0.06 -52.23 25.9 No
10/23/2006 03:38:57 ASA127 ANC 10/23/2006 03:02:00 FAI 10/23/2006 03:41:19 B737 34300 340 64.7722 -148.227 10454.6 228. -46.9 -58.2 26.6 0.06 -52.23 20.1 No
10/23/2006 03:39:56 ASA127 ANC 10/23/2006 03:02:00 FAI 10/23/2006 03:41:19 B737 34300 340 64.806 -147.991 10454.6 228. -46.9 -58.2 26.6 0.06 -52.23 8.7 No
10/23/2006 03:40:56 ASA127 ANC 10/23/2006 03:02:00 FAI 10/23/2006 03:41:19 B737 34300 340 64.806 -147.991 10454.6 228. -46.9 -58.2 26.6 0.06 -52.23 8.7 No
10/23/2006 04:12:57 ASA146 FAI 10/23/2006 04:06:00 ANC 10/23/2006 05:00:00 B73Q 20400 380 64.3167 -148.583 6217.9 434.4 -39.9 -45.5 55. 0.15 -44.46 69.3 No
10/23/2006 04:13:56 ASA146 FAI 10/23/2006 04:06:00 ANC 10/23/2006 04:55:40 B73Q 20400 380 64.2138 -148.629 6217.9 434.4 -39.9 -45.5 55. 0.15 -44.46 80.4 No
10/23/2006 04:14:57 ASA146 FAI 10/23/2006 04:06:00 ANC 10/23/2006 04:54:45 B73Q 21700 410 64.1134 -148.732 6614.2 410. -42.5 -49.2 48.9 0.11 -45.42 92.5 No
10/23/2006 04:15:56 ASA146 FAI 10/23/2006 04:06:00 ANC 10/23/2006 04:54:45 B73Q 23900 430 63.9893 -148.828 7284.7 370.8 -47.4 -54.4 46.3 0.07 -46.57 106.9 Yes
10/23/2006 04:16:56 ASA141 ANC 10/23/2006 03:49:00 FAI 10/23/2006 04:40:10 B73Q 30000 340 63.9833 -148.533 9144. 278.3 -53.2 -60.2 42.3 0.04 -49.61 102.3 Yes
10/23/2006 04:16:56 UAL883 ORD 10/22/2006 18:31:00 RJAA 10/23/2006 06:39:12 B772 34000 460 65.5239 -149.666 10363.2 231.2 -47.3 -58.3 27.2 0.06 -52.07 113.5 No
10/23/2006 04:17:56 ASA141 ANC 10/23/2006 03:49:00 FAI 10/23/2006 04:40:10 B73Q 30000 330 64.0833 -148.467 9144. 278.3 -53.2 -60.2 42.3 0.04 -49.61 90.7 Yes
10/23/2006 04:17:56 UAL883 ORD 10/22/2006 18:31:00 RJAA 10/23/2006 06:39:12 B772 34000 460 65.5055 -149.315 10363.2 231.2 -47.3 -58.3 27.2 0.06 -52.07 100. No
10/23/2006 04:18:56 ASA141 ANC 10/23/2006 03:49:00 FAI 10/23/2006 04:28:06 B73Q 30000 330 64.2273 -148.425 9144. 278.3 -53.2 -60.2 42.3 0.04 -49.61 75. Yes
10/23/2006 04:18:56 UAL883 ORD 10/22/2006 18:31:00 RJAA 10/23/2006 06:39:12 B772 34000 460 65.4869 -148.96 10363.2 231.2 -47.3 -58.3 27.2 0.06 -52.07 87.6 No
10/23/2006 04:19:56 ASA141 ANC 10/23/2006 03:49:00 FAI 10/23/2006 04:28:06 B73Q 30000 330 64.3182 -148.414 9144. 278.3 -53.2 -60.2 42.3 0.04 -49.61 65.5 Yes
10/23/2006 04:19:56 UAL883 ORD 10/22/2006 18:31:00 RJAA 10/23/2006 06:39:12 B772 34000 460 65.4619 -148.603 10363.2 231.2 -47.3 -58.3 27.2 0.06 -52.07 76.2 No
10/23/2006 04:20:56 ASA141 ANC 10/23/2006 03:49:00 FAI 10/23/2006 04:28:06 B73Q 30000 330 64.4092 -148.403 9144. 278.3 -53.2 -60.2 42.3 0.04 -49.61 56.2 Yes
10/23/2006 04:20:56 UAL883 ORD 10/22/2006 18:31:00 RJAA 10/23/2006 06:39:12 B772 34000 460 65.4366 -148.241 10363.2 231.2 -47.3 -58.3 27.2 0.06 -52.07 67.1 No
10/23/2006 04:21:57 ASA141 ANC 10/23/2006 03:49:00 FAI 10/23/2006 04:28:06 B73Q 30000 330 64.5002 -148.392 9144. 278.3 -53.2 -60.2 42.4 0.04 -49.6 47.2 Yes
10/23/2006 04:21:57 UAL883 ORD 10/22/2006 18:31:00 RJAA 10/23/2006 06:39:12 B772 34000 460 65.4111 -147.876 10363.2 231.2 -47.3 -58.3 27.2 0.06 -52.07 61.7 No
10/23/2006 04:22:56 ASA141 ANC 10/23/2006 03:49:00 FAI 10/23/2006 04:28:06 B73Q 30000 330 64.5672 -148.356 9144. 278.3 -53.2 -60.2 42.4 0.04 -49.6 40.1 Yes
10/23/2006 04:22:56 UAL883 ORD 10/22/2006 18:31:00 RJAA 10/23/2006 06:39:12 B772 34000 460 65.3789 -147.508 10363.2 231.2 -47.3 -58.3 27.2 0.06 -52.07 60.3 No
10/23/2006 04:23:57 ASA141 ANC 10/23/2006 03:49:00 FAI 10/23/2006 04:28:06 B73Q 30000 330 64.6343 -148.314 9144. 278.3 -53.2 -60.2 42.4 0.04 -49.6 33. Yes
10/23/2006 04:23:57 UAL883 ORD 10/22/2006 18:31:00 RJAA 10/23/2006 06:39:12 B772 34000 460 65.3463 -147.135 10363.2 231.2 -47.3 -58.3 27.2 0.06 -52.07 64.1 No
10/23/2006 04:24:57 ASA141 ANC 10/23/2006 03:49:00 FAI 10/23/2006 04:28:06 B73Q 30000 330 64.7022 -148.263 9144. 278.3 -53.2 -60.2 42.4 0.04 -49.6 26. Yes
10/23/2006 04:24:57 UAL883 ORD 10/22/2006 18:31:00 RJAA 10/23/2006 06:39:12 B772 34000 460 65.3134 -146.759 10363.2 231.2 -47.3 -58.3 27.2 0.06 -52.07 72.4 No
10/23/2006 04:25:56 ASA141 ANC 10/23/2006 03:49:00 FAI 10/23/2006 04:28:06 B73Q 30000 330 64.7683 -148.192 9144. 278.2 -53.2 -60.2 42.4 0.04 -49.6 18.9 Yes
10/23/2006 04:25:56 UAL883 ORD 10/22/2006 18:31:00 RJAA 10/23/2006 06:39:12 B772 34000 460 65.2735 -146.38 10363.2 231.2 -47.3 -58.3 27.2 0.06 -52.07 83.5 No
10/23/2006 04:26:57 ASA141 ANC 10/23/2006 03:49:00 FAI 10/23/2006 04:28:06 B73Q 30000 330 64.7926 -148.135 9144. 278.2 -53.2 -60.2 42.4 0.04 -49.6 15.2 Yes
10/23/2006 04:26:57 UAL883 ORD 10/22/2006 18:31:00 RJAA 10/23/2006 06:39:12 B772 34000 460 65.2332 -145.996 10363.2 231.2 -47.3 -58.3 27.2 0.06 -52.07 97.1 No
10/23/2006 04:27:56 ASA141 ANC 10/23/2006 03:49:00 FAI 10/23/2006 04:28:06 B73Q 30000 330 64.7926 -148.135 9144. 278.2 -53.2 -60.2 42.5 0.04 -49.6 15.2 Yes
10/23/2006 04:58:56 ASA128 FAI 10/23/2006 04:53:00 ANC 10/23/2006 05:38:02 B737 18700 350 64.5167 -148.5 5699.8 468. -35.6 -41. 57.9 0.23 -43.51 48.7 No
10/23/2006 04:58:56 FTA518 OME 10/23/2006 03:29:00 FAI 10/23/2006 05:27:00 B190 21000 300 64.8667 -149.917 6400.8 423.1 -41.1 -47.1 52.9 0.14 -44.87 97.7 No
10/23/2006 04:59:56 ASA128 FAI 10/23/2006 04:53:00 ANC 10/23/2006 05:38:02 B737 22700 380 64.4 -148.6 6919. 391.8 -44.7 -51.6 48.1 0.09 -45.92 61.9 No
10/23/2006 04:59:56 FTA518 OME 10/23/2006 03:29:00 FAI 10/23/2006 05:27:00 B190 21000 290 64.8667 -149.733 6400.8 423. -41.1 -47.1 52.9 0.14 -44.87 89. No
10/23/2006 05:00:57 ASA128 FAI 10/23/2006 04:53:00 ANC 10/23/2006 05:38:02 B737 25600 390 64.3 -148.683 7802.9 342.6 -50.9 -57.1 50.3 0.05 -47.14 73.3 Yes
10/23/2006 05:00:57 FTA518 OME 10/23/2006 03:29:00 FAI 10/23/2006 05:27:00 B190 21000 290 64.8667 -149.533 6400.8 423. -41.1 -47.1 52.9 0.14 -44.86 79.6 No
10/23/2006 05:01:56 ASA128 FAI 10/23/2006 04:53:00 ANC 10/23/2006 05:38:02 B737 28100 410 64.1833 -148.75 8564.9 304.3 -54.4 -59.8 52.7 0.04 -48.17 86.1 Yes
10/23/2006 05:01:56 FTA518 OME 10/23/2006 03:29:00 FAI 10/23/2006 05:11:30 B190 21000 290 64.8667 -149.415 6400.8 423. -41.1 -47.1 52.9 0.14 -44.86 74. No
10/23/2006 05:02:56 ASA128 FAI 10/23/2006 04:53:00 ANC 10/23/2006 05:38:02 B737 30100 420 64.0667 -148.833 9174.5 276.9 -53.1 -60.1 42.5 0.04 -49.64 99.3 Yes
10/23/2006 05:02:56 FTA518 OME 10/23/2006 03:29:00 FAI 10/23/2006 05:12:26 B190 21000 290 64.8667 -149.335 6400.8 423. -41.1 -47.1 52.9 0.14 -44.86 70.2 No
10/23/2006 05:03:56 ASA128 FAI 10/23/2006 04:53:00 ANC 10/23/2006 05:38:02 B737 31900 440 63.9833 -148.9 9723.1 254.4 -50.1 -59.2 33.3 0.05 -50.9 109. No
10/23/2006 05:03:56 FTA518 OME 10/23/2006 03:29:00 FAI 10/23/2006 05:12:26 B190 21000 290 64.8667 -149.254 6400.8 423. -41.1 -47.1 53. 0.14 -44.86 66.4 No
10/23/2006 05:04:56 FTA518 OME 10/23/2006 03:29:00 FAI 10/23/2006 05:12:26 B190 21000 290 64.8667 -149.174 6400.8 423. -41.1 -47.1 53. 0.14 -44.86 62.6 No
10/23/2006 05:05:56 FTA518 OME 10/23/2006 03:29:00 FAI 10/23/2006 05:12:26 B190 21000 290 64.8606 -149.087 6400.8 423. -41.1 -47.1 53. 0.14 -44.86 58.5 No
10/23/2006 05:06:56 FTA518 OME 10/23/2006 03:29:00 FAI 10/23/2006 05:12:26 B190 21000 290 64.8539 -148.992 6400.8 423. -41.1 -47.1 53. 0.14 -44.86 54. No
10/23/2006 05:06:56 UAL881 ORD 10/22/2006 19:24:00 RJAA 10/23/2006 07:32:26 B744 34000 460 65.5343 -149.852 10363.2 231.1 -47.3 -58.4 27.1 0.06 -52.08 121. No
10/23/2006 05:07:56 FTA518 OME 10/23/2006 03:29:00 FAI 10/23/2006 05:12:26 B190 21000 290 64.8464 -148.884 6400.8 423. -41.1 -47.1 53. 0.14 -44.86 48.9 No
10/23/2006 05:07:56 UAL881 ORD 10/22/2006 19:24:00 RJAA 10/23/2006 07:32:26 B744 34000 460 65.5164 -149.51 10363.2 231.1 -47.3 -58.4 27.1 0.06 -52.08 107.4 No
10/23/2006 05:08:56 FTA518 OME 10/23/2006 03:29:00 FAI 10/23/2006 05:12:26 B190 21000 290 64.8398 -148.758 6400.8 423. -41.1 -47.1 53. 0.14 -44.86 43. No
10/23/2006 05:08:56 UAL881 ORD 10/22/2006 19:24:00 RJAA 10/23/2006 07:32:26 B744 34000 460 65.4982 -149.164 10363.2 231.1 -47.3 -58.4 27.1 0.06 -52.08 94.6 No
10/23/2006 05:09:56 FTA518 OME 10/23/2006 03:29:00 FAI 10/23/2006 05:12:26 B190 21000 290 64.8317 -148.604 6400.8 423. -41.1 -47.1 53. 0.14 -44.86 35.7 No
10/23/2006 05:09:56 UAL881 ORD 10/22/2006 19:24:00 RJAA 10/23/2006 07:32:26 B744 34000 460 65.4738 -148.814 10363.2 231.1 -47.3 -58.4 27.1 0.06 -52.08 82.4 No
10/23/2006 05:10:57 FTA518 OME 10/23/2006 03:29:00 FAI 10/23/2006 05:12:26 B190 21000 290 64.8243 -148.39 6400.8 423. -41.1 -47.1 53.1 0.14 -44.86 25.8 No
10/23/2006 05:10:57 UAL881 ORD 10/22/2006 19:24:00 RJAA 10/23/2006 07:32:26 B744 34000 460 65.4492 -148.462 10363.2 231.1 -47.3 -58.4 27.1 0.06 -52.08 72. No
10/23/2006 05:11:56 FTA518 OME 10/23/2006 03:29:00 FAI 10/23/2006 05:12:26 B190 21000 290 64.8082 -147.931 6400.8 423. -41.1 -47.1 53.1 0.14 -44.85 6.6 No
10/23/2006 05:11:56 UAL881 ORD 10/22/2006 19:24:00 RJAA 10/23/2006 07:32:26 B744 34000 460 65.4243 -148.106 10363.2 231.1 -47.3 -58.4 27.1 0.06 -52.08 64.3 No
10/23/2006 05:12:57 UAL881 ORD 10/22/2006 19:24:00 RJAA 10/23/2006 07:32:26 B744 34000 460 65.3991 -147.746 10363.2 231.1 -47.3 -58.4 27.1 0.06 -52.08 60.6 No
10/23/2006 05:13:56 UAL881 ORD 10/22/2006 19:24:00 RJAA 10/23/2006 07:32:26 B744 34000 460 65.3674 -147.383 10363.2 231.1 -47.3 -58.4 27.1 0.06 -52.08 61. No
10/23/2006 05:14:56 UAL881 ORD 10/22/2006 19:24:00 RJAA 10/23/2006 07:32:26 B744 34000 460 65.3353 -147.017 10363.2 231.1 -47.3 -58.4 27.1 0.06 -52.08 66.2 No
10/23/2006 05:15:56 UAL881 ORD 10/22/2006 19:24:00 RJAA 10/23/2006 07:32:26 B744 34000 460 65.3029 -146.646 10363.2 231.1 -47.3 -58.4 27.1 0.06 -52.08 75.5 No
10/23/2006 05:16:56 UAL881 ORD 10/22/2006 19:24:00 RJAA 10/23/2006 07:32:26 B744 34000 460 65.2636 -146.272 10363.2 231.1 -47.3 -58.4 27.1 0.06 -52.08 87.2 No
10/23/2006 05:17:56 UAL881 ORD 10/22/2006 19:24:00 RJAA 10/23/2006 07:32:26 B744 34000 460 65.2239 -145.895 10363.2 231.1 -47.3 -58.4 27.1 0.06 -52.08 101. No
10/23/2006 05:23:57 FTA571 ANC 10/23/2006 04:41:00 FAI 10/23/2006 05:52:00 B190 20000 290 63.9833 -148.533 6096. 441.8 -39. -44.3 56.7 0.17 -44.19 102.3 No
10/23/2006 05:24:57 FTA571 ANC 10/23/2006 04:41:00 FAI 10/23/2006 05:52:00 B190 20000 290 64.0868 -148.5 6096. 441.8 -39. -44.3 56.7 0.17 -44.19 90.9 No
10/23/2006 05:25:56 FTA571 ANC 10/23/2006 04:41:00 FAI 10/23/2006 05:52:00 B190 20000 290 64.1634 -148.475 6096. 441.8 -39. -44.3 56.6 0.17 -44.19 82.5 No
10/23/2006 05:26:56 FTA571 ANC 10/23/2006 04:41:00 FAI 10/23/2006 05:35:55 B190 20000 290 64.24 -148.45 6096. 441.8 -39. -44.3 56.6 0.17 -44.19 74.2 No
10/23/2006 05:27:56 FTA571 ANC 10/23/2006 04:41:00 FAI 10/23/2006 05:35:55 B190 20000 290 64.3198 -148.439 6096. 441.8 -39. -44.3 56.6 0.17 -44.19 65.8 No
10/23/2006 05:28:56 FTA571 ANC 10/23/2006 04:41:00 FAI 10/23/2006 05:35:55 B190 20000 290 64.3947 -148.412 6096. 441.8 -39. -44.3 56.6 0.17 -44.19 57.8 No
10/23/2006 05:29:57 FTA571 ANC 10/23/2006 04:41:00 FAI 10/23/2006 05:35:55 B190 20000 290 64.4699 -148.381 6096. 441.8 -39. -44.3 56.6 0.17 -44.19 49.8 No
10/23/2006 05:30:58 COA7 IAH 10/22/2006 16:17:00 RJAA 10/23/2006 05:44:24 B772 34000 490 65.3097 -146.879 10363.2 231. -47.3 -58.4 27.1 0.06 -52.08 68.2 No
10/23/2006 05:30:58 FTA571 ANC 10/23/2006 04:41:00 FAI 10/23/2006 05:35:55 B190 20000 290 64.5467 -148.345 6096. 441.8 -39. -44.3 56.6 0.17 -44.19 41.6 No
10/23/2006 05:31:57 ASA140 FAI 10/23/2006 05:26:00 ANC 10/23/2006 06:16:00 B73Q 16700 360 64.5 -148.417 5090.2 510.4 -30.9 -36.7 59.4 0.34 -42.51 47.8 No
10/23/2006 05:31:57 FTA571 ANC 10/23/2006 04:41:00 FAI 10/23/2006 05:35:55 B190 20000 290 64.6222 -148.303 6096. 441.8 -38.9 -44.3 56.6 0.17 -44.19 33.7 No
10/23/2006 05:32:58 ASA140 FAI 10/23/2006 05:26:00 ANC 10/23/2006 06:11:00 B73Q 19800 390 64.4 -148.517 6035. 445.8 -38.4 -43.8 57.1 0.18 -44.07 59.7 No
10/23/2006 05:32:58 FTA571 ANC 10/23/2006 04:41:00 FAI 10/23/2006 05:35:55 B190 20000 290 64.6987 -148.252 6096. 441.8 -38.9 -44.3 56.6 0.17 -44.19 25.8 No
10/23/2006 05:33:57 ASA140 FAI 10/23/2006 05:26:00 ANC 10/23/2006 06:11:00 B73Q 22000 410 64.2833 -148.6 6705.6 404.2 -43.2 -49.7 50.2 0.11 -45.48 72.9 No
10/23/2006 05:33:57 FTA571 ANC 10/23/2006 04:41:00 FAI 10/23/2006 05:35:55 B190 20000 290 64.7733 -148.177 6096. 441.8 -38.9 -44.3 56.6 0.17 -44.19 18. No
10/23/2006 05:34:57 ASA140 FAI 10/23/2006 05:26:00 ANC 10/23/2006 06:11:00 B73Q 25800 410 64.1667 -148.7 7863.8 339.5 -51.5 -57.3 52.1 0.05 -47.12 86.6 Yes
10/23/2006 05:34:57 FTA571 ANC 10/23/2006 04:41:00 FAI 10/23/2006 05:35:55 B190 20000 290 64.8708 -147.988 6096. 441.8 -38.9 -44.3 56.6 0.17 -44.19 6.7 No
10/23/2006 05:35:58 ASA140 FAI 10/23/2006 05:26:00 ANC 10/23/2006 06:07:42 B73Q 28600 400 64.0667 -148.783 8717.3 297.2 -54.7 -60.1 52.7 0.04 -48.4 98.2 Yes
10/23/2006 05:36:58 ASA140 FAI 10/23/2006 05:26:00 ANC 10/23/2006 06:07:42 B73Q 30000 400 63.9667 -148.85 9144. 278.1 -53.3 -60. 43.6 0.04 -49.55 109.6 Yes
10/23/2006 06:04:57 ASA140 FAI 10/23/2006 05:26:00 ANC 10/23/2006 06:07:29 B73Q 31000 360 64.2671 -149.147 9448.8 265.5 -51.7 -59.6 38.6 0.05 -50.24 89.7 Yes
10/23/2006 06:34:02 ASA103 SEA 10/23/2006 03:18:00 FAI 10/23/2006 06:47:11 B734 32000 360 64.2 -145.867 9753.6 252.9 -50.1 -59.3 33.4 0.05 -50.95 118.7 No
10/23/2006 06:35:03 ASA103 SEA 10/23/2006 03:18:00 FAI 10/23/2006 06:47:15 B734 32000 350 64.2667 -146.083 9753.6 252.9 -50.1 -59.3 33.4 0.05 -50.95 106.1 No
10/23/2006 06:36:02 ASA103 SEA 10/23/2006 03:18:00 FAI 10/23/2006 06:47:24 B734 32000 350 64.3963 -146.083 9753.6 252.9 -50.1 -59.3 33.4 0.05 -50.95 97.9 No
10/23/2006 06:37:03 ASA103 SEA 10/23/2006 03:18:00 FAI 10/23/2006 06:47:44 B734 32000 350 64.4935 -146.083 9753.6 252.9 -50.1 -59.3 33.4 0.05 -50.95 92.7 No
10/23/2006 06:38:02 ASA103 SEA 10/23/2006 03:18:00 FAI 10/23/2006 06:48:12 B734 32000 350 64.5907 -146.083 9753.6 252.9 -50.1 -59.3 33.4 0.05 -50.95 88.5 No
10/23/2006 06:39:03 ASA103 SEA 10/23/2006 03:18:00 FAI 10/23/2006 06:49:38 B734 32000 350 64.688 -146.083 9753.6 252.9 -50.1 -59.3 33.4 0.05 -50.95 85.5 No
10/23/2006 06:40:03 ASA103 SEA 10/23/2006 03:18:00 FAI 10/23/2006 06:49:38 B734 32000 350 64.7018 -146.162 9753.6 252.9 -50.1 -59.3 33.4 0.05 -50.95 81.6 No
10/23/2006 06:41:02 ASA103 SEA 10/23/2006 03:18:00 FAI 10/23/2006 06:49:38 B734 32000 350 64.715 -146.245 9753.6 252.9 -50.1 -59.3 33.4 0.05 -50.95 77.4 No
10/23/2006 06:42:03 ASA103 SEA 10/23/2006 03:18:00 FAI 10/23/2006 06:49:38 B734 32000 350 64.7277 -146.335 9753.6 252.9 -50.1 -59.3 33.4 0.05 -50.95 73. No
10/23/2006 06:43:02 ASA103 SEA 10/23/2006 03:18:00 FAI 10/23/2006 06:49:38 B734 32000 350 64.7414 -146.433 9753.6 252.9 -50.1 -59.3 33.4 0.05 -50.95 68.1 No
10/23/2006 06:44:02 ASA103 SEA 10/23/2006 03:18:00 FAI 10/23/2006 06:49:38 B734 32000 350 64.7546 -146.541 9753.6 252.9 -50.1 -59.3 33.4 0.05 -50.95 62.9 No
10/23/2006 06:45:03 ASA103 SEA 10/23/2006 03:18:00 FAI 10/23/2006 06:49:38 B734 32000 350 64.7674 -146.662 9753.6 252.9 -50.1 -59.3 33.5 0.05 -50.95 57. No
10/23/2006 06:46:03 ASA103 SEA 10/23/2006 03:18:00 FAI 10/23/2006 06:49:38 B734 32000 350 64.7797 -146.803 9753.6 252.9 -50.1 -59.3 33.5 0.05 -50.95 50.2 No
10/23/2006 06:47:02 ASA103 SEA 10/23/2006 03:18:00 FAI 10/23/2006 06:49:38 B734 32000 350 64.7917 -146.974 9753.6 252.9 -50.1 -59.3 33.5 0.05 -50.94 42. No
10/23/2006 06:48:03 ASA103 SEA 10/23/2006 03:18:00 FAI 10/23/2006 06:49:38 B734 32000 350 64.8039 -147.207 9753.6 252.9 -50.1 -59.3 33.5 0.05 -50.94 30.9 No
10/23/2006 06:49:03 ASA103 SEA 10/23/2006 03:18:00 FAI 10/23/2006 06:49:38 B734 32000 350 64.8039 -147.207 9753.6 252.9 -50.1 -59.3 33.5 0.05 -50.94 30.9 No
10/23/2006 07:29:02 ASA113 SEA 10/23/2006 04:19:00 FAI 10/23/2006 07:48:09 B734 32000 420 64.2519 -145.894 9753.6 252.8 -50.2 -59.3 33.7 0.05 -50.94 114.2 No
10/23/2006 07:30:03 ASA113 SEA 10/23/2006 04:19:00 FAI 10/23/2006 07:48:09 B734 32000 400 64.3105 -146.143 9753.6 252.8 -50.2 -59.3 33.7 0.05 -50.94 100.9 No
10/23/2006 07:31:03 ASA113 SEA 10/23/2006 04:19:00 FAI 10/23/2006 07:48:09 B734 32000 400 64.371 -146.236 9753.6 252.8 -50.2 -59.3 33.7 0.05 -50.94 93.4 No
10/23/2006 07:32:03 ASA113 SEA 10/23/2006 04:19:00 FAI 10/23/2006 07:41:49 B734 32000 400 64.4315 -146.33 9753.6 252.8 -50.2 -59.3 33.7 0.05 -50.94 85.9 No
10/23/2006 07:33:02 ASA113 SEA 10/23/2006 04:19:00 FAI 10/23/2006 07:43:15 B734 32000 400 64.5247 -146.39 9753.6 252.8 -50.2 -59.3 33.7 0.05 -50.94 78.2 No
10/23/2006 07:34:03 ASA113 SEA 10/23/2006 04:19:00 FAI 10/23/2006 07:43:15 B734 32000 400 64.5587 -146.457 9753.6 252.8 -50.2 -59.3 33.7 0.05 -50.94 73.6 No
10/23/2006 07:35:02 ASA113 SEA 10/23/2006 04:19:00 FAI 10/23/2006 07:43:15 B734 32000 400 64.592 -146.528 9753.6 252.8 -50.2 -59.3 33.8 0.05 -50.94 69. No
10/23/2006 07:36:03 ASA113 SEA 10/23/2006 04:19:00 FAI 10/23/2006 07:43:15 B734 32000 400 64.6249 -146.606 9753.6 252.8 -50.2 -59.3 33.8 0.05 -50.94 64.1 No
10/23/2006 07:37:03 ASA113 SEA 10/23/2006 04:19:00 FAI 10/23/2006 07:43:15 B734 32000 400 64.6574 -146.69 9753.6 252.8 -50.2 -59.3 33.8 0.05 -50.94 59. No
10/23/2006 07:38:03 ASA113 SEA 10/23/2006 04:19:00 FAI 10/23/2006 07:43:15 B734 32000 400 64.6898 -146.784 9753.6 252.8 -50.2 -59.3 33.8 0.05 -50.93 53.6 No
10/23/2006 07:39:03 ASA113 SEA 10/23/2006 04:19:00 FAI 10/23/2006 07:43:15 B734 32000 400 64.7225 -146.891 9753.6 252.8 -50.2 -59.3 33.8 0.05 -50.93 47.6 No
10/23/2006 07:40:03 ASA113 SEA 10/23/2006 04:19:00 FAI 10/23/2006 07:43:15 B734 32000 400 64.754 -147.018 9753.6 252.8 -50.2 -59.3 33.8 0.05 -50.93 40.9 No
10/23/2006 07:41:03 ASA113 SEA 10/23/2006 04:19:00 FAI 10/23/2006 07:43:15 B734 32000 400 64.7849 -147.177 9753.6 252.8 -50.2 -59.3 33.8 0.05 -50.93 32.7 No
10/23/2006 07:42:03 ASA113 SEA 10/23/2006 04:19:00 FAI 10/23/2006 07:43:15 B734 32000 400 64.8179 -147.412 9753.6 252.8 -50.2 -59.3 33.8 0.05 -50.93 21.1 No
10/23/2006 07:43:02 ASA113 SEA 10/23/2006 04:19:00 FAI 10/23/2006 07:43:15 B734 32000 400 64.8179 -147.412 9753.6 252.8 -50.2 -59.3 33.8 0.05 -50.93 21.1 No
10/23/2006 08:28:03 ASA133 ANC 10/23/2006 07:59:00 FAI 10/23/2006 08:46:00 B734 36000 370 63.9833 -148.533 10972.8 210.3 -45.9 -58.7 22.2 0.07 -53.16 102.3 No
10/23/2006 08:29:02 ASA133 ANC 10/23/2006 07:59:00 FAI 10/23/2006 08:46:00 B734 36000 370 64.1776 -148.478 10972.8 210.3 -45.9 -58.7 22.2 0.07 -53.16 81.1 No
10/23/2006 08:30:02 ASA133 ANC 10/23/2006 07:59:00 FAI 10/23/2006 08:38:39 B734 36000 370 64.2764 -148.449 10972.8 210.3 -45.9 -58.7 22.2 0.07 -53.16 70.4 No
10/23/2006 08:31:02 ASA133 ANC 10/23/2006 07:59:00 FAI 10/23/2006 08:38:39 B734 36000 370 64.3784 -148.437 10972.8 210.3 -45.9 -58.7 22.2 0.07 -53.16 59.9 No
10/23/2006 08:32:02 ASA133 ANC 10/23/2006 07:59:00 FAI 10/23/2006 08:38:39 B734 36000 370 64.4805 -148.424 10972.8 210.3 -45.9 -58.7 22.2 0.07 -53.16 49.8 No
10/23/2006 08:33:02 ASA133 ANC 10/23/2006 07:59:00 FAI 10/23/2006 08:38:39 B734 36000 370 64.5457 -148.39 10972.8 210.3 -45.9 -58.7 22.2 0.07 -53.16 42.9 No
10/23/2006 08:34:02 ASA133 ANC 10/23/2006 07:59:00 FAI 10/23/2006 08:38:39 B734 36000 370 64.6109 -148.349 10972.8 210.3 -45.9 -58.7 22.2 0.07 -53.16 36.1 No
10/23/2006 08:35:02 ASA133 ANC 10/23/2006 07:59:00 FAI 10/23/2006 08:38:39 B734 36000 370 64.6762 -148.3 10972.8 210.3 -45.9 -58.7 22.2 0.07 -53.16 29.2 No
10/23/2006 08:36:02 ASA133 ANC 10/23/2006 07:59:00 FAI 10/23/2006 08:38:39 B734 36000 370 64.7415 -148.237 10972.8 210.3 -45.9 -58.7 22.2 0.07 -53.16 22.3 No
10/23/2006 08:37:03 ASA133 ANC 10/23/2006 07:59:00 FAI 10/23/2006 08:38:39 B734 36000 370 64.8 -148.017 10972.8 210.3 -45.9 -58.7 22.2 0.07 -53.16 10.1 No
10/23/2006 08:38:02 ASA133 ANC 10/23/2006 07:59:00 FAI 10/23/2006 08:38:39 B734 36000 370 64.8 -148.017 10972.8 210.3 -45.9 -58.7 22.2 0.07 -53.16 10.1 No
10/23/2006 08:50:02 LN102NA ANC 10/23/2006 05:17:00 AK15 10/23/2006 11:18:45 C441 28000 170 65.7093 -147.822 8534.4 305.3 -55.4 -59.5 61.6 0.04 -47.57 94.9 Yes
10/23/2006 08:51:03 LN102NA ANC 10/23/2006 05:17:00 AK15 10/23/2006 11:18:45 C441 28000 170 65.6503 -147.772 8534.4 305.3 -55.4 -59.5 61.6 0.04 -47.57 88.4 Yes
10/23/2006 08:52:03 LN102NA ANC 10/23/2006 05:17:00 AK15 10/23/2006 11:18:45 C441 28000 170 65.5914 -147.723 8534.4 305.3 -55.4 -59.5 61.7 0.04 -47.57 82. Yes
10/23/2006 08:53:02 LN102NA ANC 10/23/2006 05:17:00 AK15 10/23/2006 11:18:45 C441 28000 170 65.5325 -147.673 8534.4 305.3 -55.4 -59.5 61.7 0.04 -47.56 75.7 Yes
10/23/2006 08:54:02 LN102NA ANC 10/23/2006 05:17:00 AK15 10/23/2006 11:18:45 C441 28000 170 65.4733 -147.624 8534.4 305.3 -55.4 -59.5 61.8 0.04 -47.56 69.5 Yes
10/23/2006 08:55:02 LN102NA ANC 10/23/2006 05:17:00 AK15 10/23/2006 11:18:45 C441 28000 170 65.4141 -147.574 8534.4 305.3 -55.4 -59.5 61.8 0.04 -47.56 63.4 Yes
10/23/2006 08:56:02 LN102NA ANC 10/23/2006 05:17:00 AK15 10/23/2006 11:18:45 C441 28000 170 65.3548 -147.524 8534.4 305.3 -55.4 -59.5 61.8 0.04 -47.56 57.5 Yes
10/23/2006 08:57:02 LN102NA ANC 10/23/2006 05:17:00 AK15 10/23/2006 11:18:45 C441 28000 170 65.2954 -147.474 8534.4 305.3 -55.4 -59.5 61.9 0.04 -47.55 52. Yes
10/23/2006 08:58:02 LN102NA ANC 10/23/2006 05:17:00 AK15 10/23/2006 11:18:45 C441 28000 170 65.2358 -147.424 8534.4 305.3 -55.4 -59.5 61.9 0.04 -47.55 46.8 Yes
10/23/2006 08:59:02 LN102NA ANC 10/23/2006 05:17:00 AK15 10/23/2006 11:18:45 C441 28000 170 65.1771 -147.373 8534.4 305.3 -55.4 -59.5 62. 0.04 -47.55 42.2 Yes
10/23/2006 09:00:03 LN102NA ANC 10/23/2006 05:17:00 AK15 10/23/2006 11:18:45 C441 28000 170 65.1182 -147.322 8534.4 305.3 -55.4 -59.5 62. 0.04 -47.55 38.3 Yes
10/23/2006 09:01:03 LN102NA ANC 10/23/2006 05:17:00 AK15 10/23/2006 11:18:45 C441 28000 170 65.0593 -147.271 8534.4 305.3 -55.4 -59.4 62. 0.04 -47.54 35.5 Yes
10/23/2006 09:02:02 LN102NA ANC 10/23/2006 05:17:00 AK15 10/23/2006 11:18:45 C441 28000 170 65.0002 -147.219 8534.4 305.3 -55.4 -59.4 62.1 0.04 -47.54 33.8 Yes
10/23/2006 09:03:03 LN102NA ANC 10/23/2006 05:17:00 AK15 10/23/2006 11:18:45 C441 28000 170 64.9411 -147.168 8534.4 305.3 -55.4 -59.4 62.1 0.04 -47.54 33.6 Yes
10/23/2006 09:04:03 LN102NA ANC 10/23/2006 05:17:00 AK15 10/23/2006 11:18:45 C441 28000 170 64.8817 -147.116 8534.4 305.3 -55.4 -59.4 62.2 0.04 -47.54 34.7 Yes
10/23/2006 09:05:02 ASA114 FAI 10/23/2006 08:59:00 SEA 10/23/2006 12:17:07 B734 15200 370 64.5167 -146.967 4633. 543.9 -28.7 -31.4 77.8 0.52 -40.29 56.2 No
10/23/2006 09:05:02 LN102NA ANC 10/23/2006 05:17:00 AK15 10/23/2006 11:18:45 C441 28000 170 64.8224 -147.065 8534.4 305.3 -55.4 -59.4 62.2 0.04 -47.53 37.3 Yes
10/23/2006 09:06:02 ASA114 FAI 10/23/2006 08:59:00 SEA 10/23/2006 12:17:07 B734 17300 380 64.45 -146.767 5273. 497.2 -32.3 -40.6 44.9 0.23 -43.68 68.2 No
10/23/2006 09:06:02 LN102NA ANC 10/23/2006 05:17:00 AK15 10/23/2006 11:18:45 C441 28000 170 64.7629 -147.013 8534.4 305.3 -55.4 -59.4 62.2 0.04 -47.53 40.9 Yes
10/23/2006 09:07:02 ASA114 FAI 10/23/2006 08:59:00 SEA 10/23/2006 12:17:07 B734 19900 390 64.4 -146.55 6065.5 443.5 -38.3 -43.9 55.7 0.18 -44.21 79.6 No
10/23/2006 09:07:02 LN102NA ANC 10/23/2006 05:17:00 AK15 10/23/2006 11:18:45 C441 28000 170 64.7031 -146.961 8534.4 305.3 -55.4 -59.4 62.3 0.04 -47.53 45.3 Yes
10/23/2006 09:08:02 ASA114 FAI 10/23/2006 08:59:00 SEA 10/23/2006 12:17:07 B734 21800 400 64.3333 -146.333 6644.6 407.8 -42.9 -48.1 57.7 0.13 -44.94 92.3 No
10/23/2006 09:08:02 LN102NA ANC 10/23/2006 05:17:00 AK15 10/23/2006 11:18:45 C441 28000 170 64.6434 -146.909 8534.4 305.3 -55.4 -59.4 62.3 0.04 -47.53 50.3 Yes
10/23/2006 09:09:02 ASA114 FAI 10/23/2006 08:59:00 SEA 10/23/2006 12:17:07 B734 23300 420 64.2667 -146.1 7101.8 381.1 -46.6 -51.5 58.9 0.09 -45.54 105.5 Yes
10/23/2006 09:09:02 LN102NA ANC 10/23/2006 05:17:00 AK15 10/23/2006 11:18:45 C441 28000 170 64.5834 -146.857 8534.4 305.3 -55.4 -59.4 62.3 0.04 -47.52 55.8 Yes
10/23/2006 09:10:04 ASA114 FAI 10/23/2006 08:59:00 SEA 10/23/2006 12:17:07 B734 25100 430 64.2 -145.867 7650.5 349.9 -51. -55.4 60.6 0.06 -46.28 118.7 Yes
10/23/2006 09:10:04 LN102NA ANC 10/23/2006 05:17:00 AK15 10/23/2006 11:18:45 C441 28000 170 64.5225 -146.804 8534.4 305.3 -55.4 -59.4 62.4 0.04 -47.52 61.8 Yes
10/23/2006 09:11:04 LN102NA ANC 10/23/2006 05:17:00 AK15 10/23/2006 11:18:45 C441 28000 170 64.4623 -146.752 8534.4 305.3 -55.4 -59.4 62.4 0.04 -47.52 67.9 Yes
10/23/2006 09:12:04 LN102NA ANC 10/23/2006 05:17:00 AK15 10/23/2006 11:18:45 C441 28000 170 64.4021 -146.7 8534.4 305.3 -55.5 -59.4 62.5 0.04 -47.51 74.2 Yes
10/23/2006 09:13:04 LN102NA ANC 10/23/2006 05:17:00 AK15 10/23/2006 11:18:45 C441 28000 170 64.3427 -146.646 8534.4 305.3 -55.5 -59.4 62.5 0.04 -47.51 80.6 Yes
10/23/2006 09:14:03 LN102NA ANC 10/23/2006 05:17:00 AK15 10/23/2006 11:18:45 C441 28000 170 64.2832 -146.592 8534.4 305.3 -55.5 -59.4 62.5 0.04 -47.51 87.1 Yes
10/23/2006 09:15:05 LN102NA ANC 10/23/2006 05:17:00 AK15 10/23/2006 11:18:45 C441 28000 170 64.2226 -146.538 8534.4 305.3 -55.5 -59.4 62.6 0.04 -47.51 93.8 Yes
10/23/2006 09:16:05 LN102NA ANC 10/23/2006 05:17:00 AK15 10/23/2006 11:18:45 C441 28000 170 64.1627 -146.484 8534.4 305.3 -55.5 -59.4 62.6 0.04 -47.5 100.5 Yes
10/23/2006 09:17:05 LN102NA ANC 10/23/2006 05:17:00 AK15 10/23/2006 11:18:45 C441 28000 170 64.1028 -146.43 8534.4 305.3 -55.5 -59.4 62.7 0.04 -47.5 107.3 Yes
10/23/2006 09:18:05 LN102NA ANC 10/23/2006 05:17:00 AK15 10/23/2006 11:18:45 C441 28000 170 64.0428 -146.376 8534.4 305.3 -55.5 -59.4 62.7 0.04 -47.5 114.1 Yes
10/23/2006 09:19:05 LN102NA ANC 10/23/2006 05:17:00 AK15 10/23/2006 11:18:45 C441 28000 170 63.9825 -146.322 8534.4 305.3 -55.5 -59.4 62.7 0.04 -47.5 121. Yes
10/23/2006 12:36:13 CCA981 ZBAA 10/23/2006 11:31:00 JFK 10/23/2006 18:06:00 B744 35000 510 64.8 -149.95 10668. 219.6 -46.5 -58.7 23.5 0.06 -52.7 99.4 No
10/23/2006 12:37:13 CCA981 ZBAA 10/23/2006 11:31:00 JFK 10/23/2006 18:06:00 B744 35000 500 64.8 -149.617 10668. 219.6 -46.5 -58.7 23.5 0.06 -52.7 83.7 No
10/23/2006 12:38:12 CCA981 ZBAA 10/23/2006 11:31:00 JFK 10/23/2006 18:06:00 B744 35000 500 64.8 -149.3 10668. 219.6 -46.5 -58.7 23.5 0.06 -52.7 68.8 No
10/23/2006 12:39:13 CCA981 ZBAA 10/23/2006 11:31:00 JFK 10/23/2006 18:06:00 B744 35000 510 64.8 -148.967 10668. 219.6 -46.5 -58.7 23.5 0.06 -52.7 53.2 No
10/23/2006 12:40:13 CCA981 ZBAA 10/23/2006 11:31:00 JFK 10/23/2006 18:06:00 B744 35000 500 64.8 -148.633 10668. 219.6 -46.5 -58.7 23.6 0.06 -52.7 37.6 No
10/23/2006 12:41:13 CCA981 ZBAA 10/23/2006 11:31:00 JFK 10/23/2006 18:06:00 B744 35000 500 64.8 -148.317 10668. 219.6 -46.5 -58.7 23.6 0.06 -52.7 22.9 No
10/23/2006 12:42:13 CCA981 ZBAA 10/23/2006 11:31:00 JFK 10/23/2006 18:06:00 B744 35000 520 64.8 -147.967 10668. 219.6 -46.5 -58.7 23.6 0.06 -52.7 8.3 No
10/23/2006 12:43:12 CCA981 ZBAA 10/23/2006 11:31:00 JFK 10/23/2006 18:06:00 B744 35000 490 64.8 -147.683 10668. 219.6 -46.5 -58.7 23.6 0.06 -52.7 10. No
10/23/2006 12:44:13 CCA981 ZBAA 10/23/2006 11:31:00 JFK 10/23/2006 18:06:00 B744 35000 510 64.8 -147.283 10668. 219.6 -46.5 -58.7 23.6 0.06 -52.7 27.5 No
10/23/2006 12:45:13 CCA981 ZBAA 10/23/2006 11:31:00 JFK 10/23/2006 18:06:00 B744 35000 510 64.7833 -146.983 10668. 219.6 -46.5 -58.7 23.6 0.06 -52.7 41.7 No
10/23/2006 12:46:13 CCA981 ZBAA 10/23/2006 11:31:00 JFK 10/23/2006 18:06:00 B744 35000 510 64.7833 -146.633 10668. 219.6 -46.5 -58.6 23.6 0.06 -52.7 58. No
10/23/2006 12:47:13 CCA981 ZBAA 10/23/2006 11:31:00 JFK 10/23/2006 18:06:00 B744 35000 510 64.7833 -146.3 10668. 219.6 -46.6 -58.6 23.7 0.06 -52.7 73.7 No
10/23/2006 12:48:13 CCA981 ZBAA 10/23/2006 11:31:00 JFK 10/23/2006 18:06:00 B744 35000 510 64.7667 -145.967 10668. 219.6 -46.6 -58.6 23.7 0.06 -52.7 89.5 No
10/23/2006 13:05:14 LN983C MRI 10/23/2006 12:20:00 FAI 10/23/2006 13:24:00 BE20 24000 280 63.9667 -148.4 7315.2 368.7 -48.9 -52.2 67.7 0.09 -45.24 102.3 Yes
10/23/2006 13:06:14 LN983C MRI 10/23/2006 12:20:00 FAI 10/23/2006 13:24:00 BE20 24000 280 64.0333 -148.333 7315.2 368.7 -48.9 -52.2 67.7 0.09 -45.24 94.3 Yes
10/23/2006 13:07:14 LN983C MRI 10/23/2006 12:20:00 FAI 10/23/2006 13:24:00 BE20 24000 270 64.1 -148.3 7315.2 368.7 -48.9 -52.2 67.7 0.09 -45.24 86.7 Yes
10/23/2006 13:08:14 LN983C MRI 10/23/2006 12:20:00 FAI 10/23/2006 13:17:36 BE20 24000 280 64.1833 -148.25 7315.2 368.7 -48.9 -52.2 67.7 0.09 -45.24 77.2 Yes
10/23/2006 13:09:14 LN983C MRI 10/23/2006 12:20:00 FAI 10/23/2006 13:17:36 BE20 24000 270 64.25 -148.2 7315.2 368.7 -48.9 -52.2 67.7 0.09 -45.24 69.4 Yes
10/23/2006 13:10:14 LN983C MRI 10/23/2006 12:20:00 FAI 10/23/2006 13:17:36 BE20 24000 270 64.3629 -148.163 7315.2 368.7 -48.9 -52.2 67.8 0.09 -45.24 56.8 Yes
10/23/2006 13:11:13 LN983C MRI 10/23/2006 12:20:00 FAI 10/23/2006 13:17:36 BE20 24000 270 64.4343 -148.14 7315.2 368.7 -48.9 -52.2 67.8 0.09 -45.24 48.9 Yes
10/23/2006 13:12:14 LN983C MRI 10/23/2006 12:20:00 FAI 10/23/2006 13:17:36 BE20 24000 270 64.5056 -148.117 7315.2 368.7 -48.9 -52.2 67.8 0.09 -45.24 41. Yes
10/23/2006 13:13:14 LN983C MRI 10/23/2006 12:20:00 FAI 10/23/2006 13:17:36 BE20 24000 270 64.5769 -148.094 7315.2 368.7 -48.9 -52.2 67.8 0.09 -45.23 33.1 Yes
10/23/2006 13:14:13 LN983C MRI 10/23/2006 12:20:00 FAI 10/23/2006 13:17:36 BE20 24000 270 64.648 -148.064 7315.2 368.7 -48.9 -52.2 67.8 0.09 -45.23 25.3 Yes
10/23/2006 13:15:14 LN983C MRI 10/23/2006 12:20:00 FAI 10/23/2006 13:17:36 BE20 24000 270 64.7189 -148.026 7315.2 368.7 -48.9 -52.2 67.8 0.09 -45.23 17.4 Yes
10/23/2006 13:16:14 LN983C MRI 10/23/2006 12:20:00 FAI 10/23/2006 13:17:36 BE20 24000 270 64.7899 -147.972 7315.2 368.7 -48.9 -52.2 67.8 0.09 -45.23 9.4 Yes
10/23/2006 13:17:14 LN983C MRI 10/23/2006 12:20:00 FAI 10/23/2006 13:17:36 BE20 24000 270 64.8592 -147.836 7315.2 368.7 -48.9 -52.2 67.8 0.09 -45.23 0.7 Yes
10/23/2006 14:18:17 ASA62 FAI 10/23/2006 14:13:00 ANC 10/23/2006 15:07:52 B734 15000 320 64.5833 -148.283 4572. 548.8 -28.7 -31.7 75.5 0.5 -40.43 36.6 No
10/23/2006 14:19:17 ASA62 FAI 10/23/2006 14:13:00 ANC 10/23/2006 15:07:52 B734 18800 330 64.5 -148.35 5730.2 465.5 -35.5 -41.4 55.8 0.22 -43.7 46.1 No
10/23/2006 14:20:18 ASA62 FAI 10/23/2006 14:13:00 ANC 10/23/2006 15:07:52 B734 21500 350 64.4 -148.417 6553.2 413.2 -42.4 -46.5 64.8 0.15 -44.31 57.4 No
10/23/2006 14:21:17 ASA62 FAI 10/23/2006 14:13:00 ANC 10/23/2006 15:07:52 B734 24100 370 64.3167 -148.5 7345.7 366.9 -49.2 -52.4 68.7 0.09 -45.21 67.4 Yes
10/23/2006 14:22:18 ASA62 FAI 10/23/2006 14:13:00 ANC 10/23/2006 15:07:52 B734 26800 380 64.2 -148.6 8168.6 323.1 -56.1 -58.9 70.3 0.04 -46.36 81.1 Yes
10/23/2006 14:23:17 ASA62 FAI 10/23/2006 14:13:00 ANC 10/23/2006 15:07:52 B734 29000 390 64.1 -148.667 8839.2 290.7 -55.4 -59.5 59.9 0.04 -48.17 92.5 Yes
10/23/2006 14:24:17 ASA62 FAI 10/23/2006 14:13:00 ANC 10/23/2006 15:07:52 B734 30200 400 64. -148.75 9205. 274.7 -53.7 -59.5 49.5 0.05 -49.35 104.3 Yes
10/23/2006 14:44:17 FTA592 FAI 10/23/2006 14:30:00 ANC 10/23/2006 15:39:00 B190 15900 220 64.15 -148.55 4846.3 528. -30.2 -35.5 60.8 0.36 -42.06 85.2 No
10/23/2006 14:45:17 FTA592 FAI 10/23/2006 14:30:00 ANC 10/23/2006 15:39:00 B190 16800 220 64.1 -148.583 5120.6 508. -31.6 -39.6 46.5 0.25 -43.37 90.9 No
10/23/2006 14:46:17 FTA592 FAI 10/23/2006 14:30:00 ANC 10/23/2006 15:39:00 B190 17600 220 64.0333 -148.633 5364.5 490.8 -33. -40.5 48.8 0.24 -43.59 98.7 No
10/23/2006 14:47:17 FTA592 FAI 10/23/2006 14:30:00 ANC 10/23/2006 15:39:00 B190 18600 230 63.9833 -148.667 5669.3 469.7 -35. -40.9 56.1 0.23 -43.59 104.5 No
10/23/2006 14:55:17 PAC703 ORD 10/23/2006 09:32:00 RJAA 10/23/2006 21:50:19 B744 38000 470 64.5167 -145.8 11582.4 191.5 -46.5 -59.9 20.9 0.06 -54.08 103.9 No
10/23/2006 14:56:17 PAC703 ORD 10/23/2006 09:32:00 RJAA 10/23/2006 21:50:19 B744 38000 470 64.5 -146.117 11582.4 191.5 -46.5 -59.9 21. 0.06 -54.08 90.9 No
10/23/2006 14:57:17 PAC703 ORD 10/23/2006 09:32:00 RJAA 10/23/2006 21:50:19 B744 38000 470 64.4833 -146.417 11582.4 191.5 -46.5 -59.9 21. 0.06 -54.08 79.4 No
10/23/2006 14:58:17 PAC703 ORD 10/23/2006 09:32:00 RJAA 10/23/2006 21:50:19 B744 38000 470 64.4833 -146.7 11582.4 191.5 -46.5 -59.9 21. 0.06 -54.07 68.3 No
10/23/2006 14:59:17 PAC703 ORD 10/23/2006 09:32:00 RJAA 10/23/2006 21:50:19 B744 38000 470 64.4667 -147.017 11582.4 191.5 -46.5 -59.9 21. 0.06 -54.07 58.5 No
10/23/2006 15:00:18 ASA143 ANC 10/23/2006 14:32:00 FAI 10/23/2006 15:19:17 B73Q 28000 360 63.9667 -148.55 8534.4 304.9 -56.4 -59.5 67.5 0.04 -47.16 104.3 Yes
10/23/2006 15:00:18 PAC703 ORD 10/23/2006 09:32:00 RJAA 10/23/2006 21:50:19 B744 38000 470 64.45 -147.317 11582.4 191.5 -46.5 -59.8 21. 0.06 -54.07 51.7 No
10/23/2006 15:01:17 ASA143 ANC 10/23/2006 14:32:00 FAI 10/23/2006 15:19:17 B73Q 28000 340 64.0833 -148.483 8534.4 304.9 -56.4 -59.6 67.5 0.04 -47.16 91. Yes
10/23/2006 15:01:17 FTA1 FAI 10/23/2006 14:50:00 GAL 10/23/2006 15:56:00 B190 15100 210 64.8167 -149.133 4602.5 546.5 -28.9 -32.1 74.8 0.48 -40.55 60.8 No
10/23/2006 15:01:17 PAC703 ORD 10/23/2006 09:32:00 RJAA 10/23/2006 21:50:19 B744 38000 470 64.4333 -147.633 11582.4 191.5 -46.6 -59.8 21. 0.06 -54.07 48.1 No
10/23/2006 15:02:17 ASA143 ANC 10/23/2006 14:32:00 FAI 10/23/2006 15:10:58 B73Q 28000 340 64.2483 -148.442 8534.4 304.9 -56.4 -59.6 67.5 0.04 -47.16 73.2 Yes
10/23/2006 15:02:17 FTA1 FAI 10/23/2006 14:50:00 GAL 10/23/2006 15:56:00 B190 16300 210 64.8167 -149.283 4968.2 519.1 -30.7 -37.8 51.3 0.29 -42.86 67.9 No
10/23/2006 15:02:17 PAC703 ORD 10/23/2006 09:32:00 RJAA 10/23/2006 21:50:19 B744 38000 460 64.4167 -147.917 11582.4 191.5 -46.6 -59.8 21. 0.06 -54.07 49. No
10/23/2006 15:03:17 ASA143 ANC 10/23/2006 14:32:00 FAI 10/23/2006 15:10:58 B73Q 28000 340 64.3422 -148.432 8534.4 304.9 -56.4 -59.6 67.5 0.04 -47.16 63.4 Yes
10/23/2006 15:03:17 FTA1 FAI 10/23/2006 14:50:00 GAL 10/23/2006 15:56:00 B190 17200 220 64.8167 -149.417 5242.6 499.3 -32.4 -40.5 46. 0.23 -43.57 74.2 No
10/23/2006 15:03:17 PAC703 ORD 10/23/2006 09:32:00 RJAA 10/23/2006 21:50:19 B744 38000 470 64.4 -148.217 11582.4 191.5 -46.6 -59.8 21.1 0.06 -54.07 53.6 No
10/23/2006 15:04:17 ASA143 ANC 10/23/2006 14:32:00 FAI 10/23/2006 15:10:58 B73Q 28000 340 64.4361 -148.423 8534.4 304.9 -56.4 -59.6 67.5 0.04 -47.16 54. Yes
10/23/2006 15:04:17 FTA1 FAI 10/23/2006 14:50:00 GAL 10/23/2006 15:56:00 B190 18500 210 64.8167 -149.567 5638.8 471.8 -34.8 -40.7 56.4 0.24 -43.53 81.3 No
10/23/2006 15:04:17 PAC703 ORD 10/23/2006 09:32:00 RJAA 10/23/2006 21:50:19 B744 38000 470 64.4 -148.467 11582.4 191.5 -46.6 -59.8 21.1 0.06 -54.07 58.5 No
10/23/2006 15:05:17 ASA143 ANC 10/23/2006 14:32:00 FAI 10/23/2006 15:10:58 B73Q 28000 340 64.5301 -148.413 8534.4 304.9 -56.4 -59.6 67.5 0.04 -47.16 45. Yes
10/23/2006 15:05:17 FTA1 FAI 10/23/2006 14:50:00 GAL 10/23/2006 15:56:00 B190 19100 210 64.8167 -149.667 5821.7 459.4 -36.3 -41.8 58.3 0.21 -43.68 86. No
10/23/2006 15:05:17 PAC703 ORD 10/23/2006 09:32:00 RJAA 10/23/2006 21:50:19 B744 38000 470 64.3667 -148.767 11582.4 191.5 -46.6 -59.8 21.1 0.06 -54.07 69.6 No
10/23/2006 15:06:17 ASA143 ANC 10/23/2006 14:32:00 FAI 10/23/2006 15:10:58 B73Q 28000 340 64.5974 -148.371 8534.4 304.9 -56.4 -59.6 67.5 0.04 -47.16 37.9 Yes
10/23/2006 15:06:17 FTA1 FAI 10/23/2006 14:50:00 GAL 10/23/2006 15:56:00 B190 20000 220 64.8333 -149.85 6096. 441.3 -38.6 -43.5 60.4 0.19 -43.95 94.6 No
10/23/2006 15:06:17 PAC703 ORD 10/23/2006 09:32:00 RJAA 10/23/2006 21:50:19 B744 38000 470 64.35 -149.083 11582.4 191.5 -46.6 -59.8 21.1 0.06 -54.07 81. No
10/23/2006 15:07:17 ASA143 ANC 10/23/2006 14:32:00 FAI 10/23/2006 15:10:58 B73Q 28000 340 64.6646 -148.32 8534.4 304.9 -56.4 -59.6 67.4 0.04 -47.17 30.8 Yes
10/23/2006 15:07:17 PAC703 ORD 10/23/2006 09:32:00 RJAA 10/23/2006 21:50:19 B744 38000 460 64.3333 -149.367 11582.4 191.5 -46.6 -59.8 21.1 0.06 -54.07 92.3 No
10/23/2006 15:08:17 ASA143 ANC 10/23/2006 14:32:00 FAI 10/23/2006 15:10:58 B73Q 28000 340 64.7316 -148.255 8534.4 304.9 -56.4 -59.6 67.4 0.04 -47.17 23.6 Yes
10/23/2006 15:08:17 PAC703 ORD 10/23/2006 09:32:00 RJAA 10/23/2006 21:50:19 B744 38000 470 64.3167 -149.667 11582.4 191.5 -46.6 -59.8 21.1 0.06 -54.07 104.7 No
10/23/2006 15:09:17 ASA143 ANC 10/23/2006 14:32:00 FAI 10/23/2006 15:10:58 B73Q 28000 340 64.7948 -148.162 8534.4 304.9 -56.4 -59.6 67.4 0.04 -47.17 16.2 Yes
10/23/2006 15:10:17 ASA118 FAI 10/23/2006 15:04:00 SEA 10/23/2006 18:22:00 B734 15600 360 64.55 -147.083 4754.9 534.9 -29.8 -33.7 70. 0.42 -41.21 49.7 No
10/23/2006 15:10:17 ASA143 ANC 10/23/2006 14:32:00 FAI 10/23/2006 15:10:58 B73Q 28000 340 64.8095 -147.976 8534.4 304.9 -56.4 -59.6 67.4 0.04 -47.17 7.9 Yes
10/23/2006 15:11:17 ASA118 FAI 10/23/2006 15:04:00 SEA 10/23/2006 18:22:00 B734 18400 380 64.4833 -146.883 5608.3 473.9 -34.6 -40.4 56.3 0.24 -43.49 61.7 No
10/23/2006 15:12:17 ASA118 FAI 10/23/2006 15:04:00 SEA 10/23/2006 18:22:00 B734 18400 380 64.4075 -146.786 5608.3 473.9 -34.6 -40.4 56.3 0.24 -43.49 70.8 No
10/23/2006 15:13:17 ASA118 FAI 10/23/2006 15:04:00 SEA 10/23/2006 18:22:00 B734 20600 400 64.3812 -146.569 6278.9 430.1 -40.2 -44.7 62.7 0.17 -44.05 80.3 No
10/23/2006 15:14:17 ASA118 FAI 10/23/2006 15:04:00 SEA 10/23/2006 18:22:00 B734 22900 400 64.3029 -146.359 6979.9 387.8 -46.1 -49.5 68.8 0.11 -44.64 93.5 Yes
10/23/2006 15:15:17 ASA118 FAI 10/23/2006 15:04:00 SEA 10/23/2006 18:22:00 B734 24600 420 64.2331 -146.138 7498.1 358.2 -50.6 -53.7 69.5 0.08 -45.39 106.5 Yes
10/23/2006 15:16:17 ASA118 FAI 10/23/2006 15:04:00 SEA 10/23/2006 18:22:00 B734 26400 430 64.1683 -145.9 8046.7 329.3 -55.2 -58. 70.3 0.05 -46.17 119.7 Yes
10/23/2006 15:28:17 ASA89 ANC 10/23/2006 14:59:00 FAI 10/23/2006 15:46:00 B734 36000 340 64.05 -148.5 10972.8 209.7 -46.7 -58.9 23.6 0.06 -53.13 94.8 No
10/23/2006 15:29:17 ASA89 ANC 10/23/2006 14:59:00 FAI 10/23/2006 15:38:35 B734 36000 340 64.2117 -148.466 10972.8 209.7 -46.7 -58.9 23.6 0.06 -53.13 77.3 No
10/23/2006 15:30:17 ASA89 ANC 10/23/2006 14:59:00 FAI 10/23/2006 15:38:35 B734 36000 340 64.3058 -148.457 10972.8 209.7 -46.7 -58.9 23.7 0.06 -53.13 67.6 No
10/23/2006 15:31:17 ASA89 ANC 10/23/2006 14:59:00 FAI 10/23/2006 15:38:35 B734 36000 340 64.3998 -148.449 10972.8 209.7 -46.7 -58.9 23.7 0.06 -53.13 58.1 No
10/23/2006 15:32:17 ASA89 ANC 10/23/2006 14:59:00 FAI 10/23/2006 15:38:35 B734 36000 340 64.4939 -148.441 10972.8 209.7 -46.7 -58.9 23.7 0.06 -53.13 49. No
10/23/2006 15:32:17 CON131 ANC 10/23/2006 15:05:00 SCC 10/23/2006 16:34:00 B732 32000 430 64.0692 -149.525 9753.6 252.2 -50.7 -58.9 37.6 0.06 -50.78 118. No
10/23/2006 15:33:17 ASA89 ANC 10/23/2006 14:59:00 FAI 10/23/2006 15:38:35 B734 36000 340 64.5599 -148.401 10972.8 209.7 -46.7 -58.9 23.7 0.06 -53.13 42. No
10/23/2006 15:33:17 CON131 ANC 10/23/2006 15:05:00 SCC 10/23/2006 16:34:00 B732 32000 420 64.1833 -149.5 9753.6 252.2 -50.7 -58.9 37.6 0.06 -50.78 108.1 No
10/23/2006 15:34:17 ASA89 ANC 10/23/2006 14:59:00 FAI 10/23/2006 15:38:35 B734 36000 340 64.6267 -148.356 10972.8 209.7 -46.7 -58.9 23.7 0.06 -53.13 35. No
10/23/2006 15:34:17 CON131 ANC 10/23/2006 15:05:00 SCC 10/23/2006 16:34:00 B732 32000 420 64.3055 -149.492 9753.6 252.2 -50.7 -58.9 37.6 0.06 -50.78 98.8 No
10/23/2006 15:34:17 FTA780 ANC 10/23/2006 14:51:00 FAI 10/23/2006 16:01:00 B190 20000 280 63.9667 -148.55 6096. 441.3 -38.7 -43.5 61.2 0.19 -43.89 104.3 No
10/23/2006 15:35:17 ASA89 ANC 10/23/2006 14:59:00 FAI 10/23/2006 15:38:35 B734 36000 340 64.6931 -148.301 10972.8 209.7 -46.7 -58.9 23.7 0.06 -53.13 28. No
10/23/2006 15:35:17 CON131 ANC 10/23/2006 15:05:00 SCC 10/23/2006 16:34:00 B732 32000 410 64.4136 -149.475 9753.6 252.2 -50.7 -58.9 37.6 0.06 -50.78 91.2 No
10/23/2006 15:35:17 FTA780 ANC 10/23/2006 14:51:00 FAI 10/23/2006 16:01:00 B190 20000 280 64.05 -148.5 6096. 441.3 -38.7 -43.5 61.3 0.19 -43.89 94.8 No
10/23/2006 15:36:17 ASA89 ANC 10/23/2006 14:59:00 FAI 10/23/2006 15:38:35 B734 36000 340 64.759 -148.227 10972.8 209.7 -46.7 -58.9 23.7 0.06 -53.13 20.9 No
10/23/2006 15:36:17 CON131 ANC 10/23/2006 15:05:00 SCC 10/23/2006 16:34:00 B732 32000 410 64.5303 -149.459 9753.6 252.2 -50.7 -58.9 37.6 0.06 -50.78 84.2 No
10/23/2006 15:36:17 FTA780 ANC 10/23/2006 14:51:00 FAI 10/23/2006 16:01:00 B190 20000 280 64.184 -148.464 6096. 441.3 -38.7 -43.5 61.3 0.19 -43.88 80.2 No
10/23/2006 15:37:18 ASA89 ANC 10/23/2006 14:59:00 FAI 10/23/2006 15:38:35 B734 36000 340 64.8069 -147.987 10972.8 209.7 -46.7 -58.9 23.7 0.06 -53.13 8.5 No
10/23/2006 15:37:18 CON131 ANC 10/23/2006 15:05:00 SCC 10/23/2006 16:34:00 B732 32000 410 64.6469 -149.442 9753.6 252.2 -50.7 -58.9 37.7 0.06 -50.78 78.8 No
10/23/2006 15:37:18 FTA780 ANC 10/23/2006 14:51:00 FAI 10/23/2006 15:45:48 B190 20000 280 64.2591 -148.444 6096. 441.3 -38.7 -43.5 61.3 0.19 -43.88 72.1 No
10/23/2006 15:38:17 ASA89 ANC 10/23/2006 14:59:00 FAI 10/23/2006 15:38:35 B734 36000 340 64.8069 -147.987 10972.8 209.7 -46.7 -58.9 23.8 0.06 -53.13 8.5 No
10/23/2006 15:38:17 CON131 ANC 10/23/2006 15:05:00 SCC 10/23/2006 16:34:00 B732 32000 420 64.7665 -149.427 9753.6 252.2 -50.7 -58.9 37.7 0.06 -50.78 75.2 No
10/23/2006 15:38:17 FTA780 ANC 10/23/2006 14:51:00 FAI 10/23/2006 15:45:48 B190 20000 280 64.3363 -148.435 6096. 441.3 -38.7 -43.5 61.4 0.19 -43.88 64.1 No
10/23/2006 15:39:17 CON131 ANC 10/23/2006 15:05:00 SCC 10/23/2006 16:34:00 B732 32000 430 64.8859 -149.41 9753.6 252.2 -50.7 -58.9 37.7 0.06 -50.78 73.8 No
10/23/2006 15:39:17 FTA780 ANC 10/23/2006 14:51:00 FAI 10/23/2006 15:45:48 B190 20000 280 64.4135 -148.425 6096. 441.3 -38.7 -43.5 61.4 0.19 -43.88 56.2 No
10/23/2006 15:40:17 CON131 ANC 10/23/2006 15:05:00 SCC 10/23/2006 16:34:00 B732 32000 420 64.9998 -149.394 9753.6 252.2 -50.7 -58.8 37.7 0.06 -50.78 74.7 No
10/23/2006 15:40:17 FTA780 ANC 10/23/2006 14:51:00 FAI 10/23/2006 15:45:48 B190 20000 280 64.4914 -148.39 6096. 441.3 -38.7 -43.5 61.4 0.19 -43.88 47.9 No
10/23/2006 15:41:17 CON131 ANC 10/23/2006 15:05:00 SCC 10/23/2006 16:34:00 B732 32000 440 65.1387 -149.377 9753.6 252.2 -50.7 -58.8 37.7 0.06 -50.78 78.7 No
10/23/2006 15:41:17 FTA780 ANC 10/23/2006 14:51:00 FAI 10/23/2006 15:45:48 B190 20000 280 64.5696 -148.351 6096. 441.3 -38.7 -43.4 61.4 0.19 -43.87 39.7 No
10/23/2006 15:42:17 CON131 ANC 10/23/2006 15:05:00 SCC 10/23/2006 16:34:00 B732 32000 420 65.2498 -149.361 9753.6 252.2 -50.7 -58.8 37.7 0.06 -50.78 83.7 No
10/23/2006 15:42:17 FTA780 ANC 10/23/2006 14:51:00 FAI 10/23/2006 15:45:48 B190 20000 280 64.6478 -148.302 6096. 441.3 -38.7 -43.4 61.5 0.19 -43.87 31.5 No
10/23/2006 15:43:17 CON131 ANC 10/23/2006 15:05:00 SCC 10/23/2006 16:34:00 B732 32000 420 65.3665 -149.344 9753.6 252.2 -50.7 -58.8 37.7 0.06 -50.78 90.6 No
10/23/2006 15:43:17 FTA780 ANC 10/23/2006 14:51:00 FAI 10/23/2006 15:45:48 B190 20000 280 64.7264 -148.238 6096. 441.3 -38.7 -43.4 61.5 0.19 -43.87 23.3 No
10/23/2006 15:44:17 CON131 ANC 10/23/2006 15:05:00 SCC 10/23/2006 16:34:00 B732 32000 420 65.4825 -149.302 9753.6 252.2 -50.7 -58.8 37.7 0.06 -50.78 97.8 No
10/23/2006 15:44:17 FTA780 ANC 10/23/2006 14:51:00 FAI 10/23/2006 15:45:48 B190 20000 280 64.8 -148.017 6096. 441.3 -38.7 -43.4 61.5 0.19 -43.87 10.1 No
10/23/2006 15:45:17 CON131 ANC 10/23/2006 15:05:00 SCC 10/23/2006 16:34:00 B732 32000 420 65.4833 -149.3 9753.6 252.2 -50.7 -58.8 37.7 0.06 -50.78 97.8 No
10/23/2006 15:45:17 FTA780 ANC 10/23/2006 14:51:00 FAI 10/23/2006 15:45:48 B190 20000 280 64.8 -148.017 6096. 441.3 -38.7 -43.4 61.6 0.19 -43.87 10.1 No
10/23/2006 15:46:17 CON131 ANC 10/23/2006 15:05:00 SCC 10/23/2006 16:34:00 B732 32000 420 65.6 -149.283 9753.6 252.2 -50.7 -58.8 37.8 0.06 -50.78 106.9 No
10/23/2006 15:47:17 CON131 ANC 10/23/2006 15:05:00 SCC 10/23/2006 16:34:00 B732 32000 430 65.7167 -149.267 9753.6 252.2 -50.7 -58.8 37.8 0.06 -50.78 116.8 No
10/23/2006 16:12:17 ASA143 FAI 10/23/2006 16:04:00 BRW 10/23/2006 17:24:00 B73Q 17200 420 65.25 -148.583 5242.6 499.4 -32.4 -39.9 49.6 0.25 -43.36 55.9 No
10/23/2006 16:13:18 ASA143 FAI 10/23/2006 16:04:00 BRW 10/23/2006 17:24:00 B73Q 19100 440 65.3667 -148.683 5821.7 459.5 -36.5 -41.6 60.5 0.22 -43.53 69.1 No
10/23/2006 16:14:17 ASA143 FAI 10/23/2006 16:04:00 BRW 10/23/2006 17:24:00 B73Q 20800 440 65.4833 -148.8 6339.8 426.3 -40.8 -44.9 65. 0.17 -43.97 83. No
10/23/2006 16:15:17 ASA143 FAI 10/23/2006 16:04:00 BRW 10/23/2006 17:24:00 B73Q 22600 450 65.6 -148.933 6888.5 393.1 -45.4 -48.7 69.7 0.12 -44.43 97.3 Yes
10/23/2006 16:16:17 ASA143 FAI 10/23/2006 16:04:00 BRW 10/23/2006 17:24:00 B73Q 24800 450 65.7167 -149.05 7559. 354.7 -51.2 -54.2 70.1 0.07 -45.44 111.2 Yes
10/23/2006 16:30:18 FTA48 FAI 10/23/2006 16:19:00 RBY 10/23/2006 17:17:00 B190 15000 190 64.7667 -149.017 4572. 548.9 -28.8 -32.2 72.8 0.48 -40.69 56. No
10/23/2006 16:31:18 FTA48 FAI 10/23/2006 16:19:00 RBY 10/23/2006 17:17:00 B190 16200 210 64.7833 -149.15 4937.8 521.4 -30.7 -36.7 57. 0.32 -42.45 62. No
10/23/2006 16:32:18 FTA48 FAI 10/23/2006 16:19:00 RBY 10/23/2006 17:17:00 B190 17300 210 64.7833 -149.283 5273. 497.2 -32.6 -39.8 51.4 0.25 -43.3 68.2 No
10/23/2006 16:33:18 CON271 ANC 10/23/2006 16:05:00 FAI 10/23/2006 16:54:00 B732 28000 360 64.0167 -148.517 8534.4 304.8 -56.5 -59.7 66.7 0.04 -47.22 98.5 Yes
10/23/2006 16:33:18 FTA48 FAI 10/23/2006 16:19:00 RBY 10/23/2006 17:17:00 B190 18400 200 64.7833 -149.417 5608.3 473.9 -34.8 -40.2 59.2 0.25 -43.29 74.5 No
10/23/2006 16:34:18 CON271 ANC 10/23/2006 16:05:00 FAI 10/23/2006 16:54:00 B732 28000 360 64.1439 -148.483 8534.4 304.8 -56.5 -59.7 66.7 0.04 -47.22 84.7 Yes
10/23/2006 16:34:18 FTA48 FAI 10/23/2006 16:19:00 RBY 10/23/2006 17:17:00 B190 19300 220 64.8 -149.567 5882.6 455.4 -37. -41.9 61.6 0.21 -43.54 81.4 No
10/23/2006 16:35:18 CON271 ANC 10/23/2006 16:05:00 FAI 10/23/2006 16:44:01 B732 28000 360 64.2404 -148.457 8534.4 304.8 -56.5 -59.7 66.7 0.04 -47.22 74.2 Yes
10/23/2006 16:35:18 FTA48 FAI 10/23/2006 16:19:00 RBY 10/23/2006 17:17:00 B190 20000 200 64.8 -149.7 6096. 441.3 -38.8 -43.3 63. 0.19 -43.76 87.7 No
10/23/2006 16:36:18 CON271 ANC 10/23/2006 16:05:00 FAI 10/23/2006 16:44:01 B732 28000 360 64.3397 -148.445 8534.4 304.8 -56.5 -59.7 66.7 0.04 -47.22 63.9 Yes
10/23/2006 16:36:18 FTA48 FAI 10/23/2006 16:19:00 RBY 10/23/2006 17:17:00 B190 20000 230 64.8 -149.85 6096. 441.3 -38.8 -43.3 63.1 0.19 -43.76 94.7 No
10/23/2006 16:37:18 CON271 ANC 10/23/2006 16:05:00 FAI 10/23/2006 16:44:01 B732 28000 360 64.439 -148.432 8534.4 304.8 -56.5 -59.7 66.7 0.04 -47.22 53.9 Yes
10/23/2006 16:38:18 CON271 ANC 10/23/2006 16:05:00 FAI 10/23/2006 16:44:01 B732 28000 360 64.5099 -148.398 8534.4 304.8 -56.5 -59.7 66.7 0.04 -47.22 46.4 Yes
10/23/2006 16:39:18 CON271 ANC 10/23/2006 16:05:00 FAI 10/23/2006 16:44:01 B732 28000 360 64.5811 -148.358 8534.4 304.8 -56.5 -59.7 66.7 0.04 -47.22 38.9 Yes
10/23/2006 16:40:18 CON271 ANC 10/23/2006 16:05:00 FAI 10/23/2006 16:44:01 B732 28000 360 64.6522 -148.31 8534.4 304.8 -56.5 -59.7 66.7 0.04 -47.23 31.4 Yes
10/23/2006 16:41:18 CON271 ANC 10/23/2006 16:05:00 FAI 10/23/2006 16:44:01 B732 28000 360 64.7239 -148.25 8534.4 304.8 -56.5 -59.7 66.7 0.04 -47.23 24. Yes
10/23/2006 16:42:18 CON271 ANC 10/23/2006 16:05:00 FAI 10/23/2006 16:44:01 B732 28000 360 64.7913 -148.161 8534.4 304.8 -56.5 -59.7 66.7 0.04 -47.23 16.4 Yes
10/23/2006 16:43:18 CON271 ANC 10/23/2006 16:05:00 FAI 10/23/2006 16:44:01 B732 28000 360 64.7913 -148.161 8534.4 304.8 -56.5 -59.7 66.6 0.04 -47.23 16.4 Yes
10/23/2006 16:52:18 FTA540 FAI 10/23/2006 16:42:00 FYU 10/23/2006 17:23:00 B190 15000 220 65.3167 -147.233 4572. 549. -28.8 -32.3 72.3 0.47 -40.73 58.9 No
10/23/2006 16:53:18 FTA540 FAI 10/23/2006 16:42:00 FYU 10/23/2006 17:23:00 B190 15000 260 65.3833 -147.15 4572. 549. -28.8 -32.3 72.3 0.47 -40.73 67.3 No
10/23/2006 16:54:18 ASA98 FAI 10/23/2006 16:48:00 ANC 10/23/2006 17:33:19 B734 15500 330 64.6333 -148.283 4724.4 537.3 -29.8 -33.1 73.1 0.44 -40.88 32.2 No
10/23/2006 16:54:18 FTA540 FAI 10/23/2006 16:42:00 FYU 10/23/2006 17:23:00 B190 15000 280 65.4333 -147.05 4572. 549. -28.8 -32.3 72.3 0.47 -40.73 74.5 No
10/23/2006 16:55:18 ASA98 FAI 10/23/2006 16:48:00 ANC 10/23/2006 17:33:19 B734 18700 340 64.5667 -148.433 5699.8 467.7 -35.6 -40.7 60.8 0.24 -43.32 42.4 No
10/23/2006 16:55:18 FTA540 FAI 10/23/2006 16:42:00 FYU 10/23/2006 17:23:00 B190 15000 270 65.5 -146.95 4572. 549. -28.8 -32.3 72.3 0.47 -40.73 83.3 No
10/23/2006 16:56:18 ASA98 FAI 10/23/2006 16:48:00 ANC 10/23/2006 17:33:19 B734 21900 350 64.4833 -148.567 6675.1 405.7 -43.6 -47. 69.4 0.14 -44.13 53.5 No
10/23/2006 16:56:18 FTA540 FAI 10/23/2006 16:42:00 FYU 10/23/2006 17:23:00 B190 15000 270 65.5667 -146.867 4572. 549. -28.8 -32.3 72.2 0.47 -40.74 91.6 No
10/23/2006 16:57:18 ASA98 FAI 10/23/2006 16:48:00 ANC 10/23/2006 17:33:19 B734 24200 360 64.4 -148.683 7376.2 365.1 -49.6 -52.7 70.5 0.08 -45.12 64.2 Yes
10/23/2006 16:57:18 FTA540 FAI 10/23/2006 16:42:00 FYU 10/23/2006 17:23:00 B190 15000 270 65.6333 -146.767 4572. 549. -28.8 -32.3 72.2 0.47 -40.74 100.4 No
10/23/2006 16:58:18 ASA98 FAI 10/23/2006 16:48:00 ANC 10/23/2006 17:33:19 B734 26500 380 64.3 -148.75 8077.2 327.7 -55.4 -58.3 70.3 0.05 -46.22 75.1 Yes
10/23/2006 16:58:18 FTA540 FAI 10/23/2006 16:42:00 FYU 10/23/2006 17:23:00 B190 15000 270 65.7 -146.667 4572. 549. -28.8 -32.3 72.2 0.47 -40.74 109.2 No
10/23/2006 16:59:18 ASA98 FAI 10/23/2006 16:48:00 ANC 10/23/2006 17:33:19 B734 29100 380 64.1667 -148.833 8869.7 289.3 -55.6 -59.9 59.1 0.04 -48.27 89.7 Yes
10/23/2006 17:00:18 ASA98 FAI 10/23/2006 16:48:00 ANC 10/23/2006 17:33:19 B734 30200 400 64.0667 -148.917 9205. 274.5 -54. -59.6 50.6 0.05 -49.3 101.2 Yes
10/23/2006 17:01:18 ASA98 FAI 10/23/2006 16:48:00 ANC 10/23/2006 17:33:19 B734 31800 420 63.9833 -148.967 9692.6 254.5 -50.8 -58.7 39.4 0.06 -50.61 110.5 Yes
10/23/2006 17:18:18 FTA500 FAI 10/23/2006 17:07:00 OME 10/23/2006 19:03:00 B190 15400 230 64.8167 -148.9 4693.9 539.6 -29.6 -32.7 74.7 0.46 -40.69 49.8 No
10/23/2006 17:19:18 FTA500 FAI 10/23/2006 17:07:00 OME 10/23/2006 19:03:00 B190 16700 220 64.8167 -149.05 5090.2 510.4 -31.6 -38.2 54.5 0.29 -42.84 56.9 No
10/23/2006 17:20:18 FTA500 FAI 10/23/2006 17:07:00 OME 10/23/2006 19:03:00 B190 18200 220 64.8167 -149.2 5547.4 478.1 -34.4 -39.7 60. 0.26 -43.15 64. No
10/23/2006 17:21:18 FTA500 FAI 10/23/2006 17:07:00 OME 10/23/2006 19:03:00 B190 19300 220 64.8167 -149.333 5882.6 455.5 -37.1 -41.8 63. 0.22 -43.43 70.2 No
10/23/2006 17:22:18 FTA500 FAI 10/23/2006 17:07:00 OME 10/23/2006 19:03:00 B190 20000 220 64.8167 -149.483 6096. 441.3 -38.9 -43.2 64.4 0.19 -43.66 77.3 No
10/23/2006 17:23:19 FTA500 FAI 10/23/2006 17:07:00 OME 10/23/2006 19:03:00 B190 20000 240 64.8167 -149.65 6096. 441.3 -38.9 -43.2 64.4 0.19 -43.66 85.2 No
10/23/2006 17:24:18 FTA500 FAI 10/23/2006 17:07:00 OME 10/23/2006 19:03:00 B190 20000 250 64.8167 -149.817 6096. 441.3 -38.9 -43.2 64.5 0.19 -43.66 93. No
10/23/2006 17:30:18 FTA575 FAI 10/23/2006 17:19:00 BTI 10/23/2006 18:48:00 B190 15400 200 65.3333 -147.417 4693.9 539.6 -29.6 -32.7 74.6 0.46 -40.7 56.9 No
10/23/2006 17:31:18 FTA575 FAI 10/23/2006 17:19:00 BTI 10/23/2006 18:48:00 B190 16200 210 65.4 -147.383 4937.8 521.5 -30.7 -36.4 59.3 0.34 -42.3 64.4 No
10/23/2006 17:32:18 FTA575 FAI 10/23/2006 17:19:00 BTI 10/23/2006 18:48:00 B190 17100 210 65.45 -147.35 5212.1 501.6 -32.3 -39.1 53.7 0.27 -43.07 70.1 No
10/23/2006 17:33:18 CON271 FAI 10/23/2006 17:25:00 SCC 10/23/2006 18:25:00 B732 16000 380 65.4222 -147.783 4876.8 525.9 -30.5 -35.4 62.7 0.36 -41.96 63. No
10/23/2006 17:33:18 FTA575 FAI 10/23/2006 17:19:00 BTI 10/23/2006 18:48:00 B190 18200 210 65.5 -147.3 5547.4 478.1 -34.5 -39.7 60.5 0.26 -43.12 76.2 No
10/23/2006 17:34:18 CON271 FAI 10/23/2006 17:25:00 SCC 10/23/2006 18:25:00 B732 18500 400 65.5444 -147.783 5638.8 471.9 -35.2 -40.1 61.6 0.25 -43.17 76.6 No
10/23/2006 17:34:18 FTA575 FAI 10/23/2006 17:19:00 BTI 10/23/2006 18:48:00 B190 19200 210 65.5667 -147.267 5852.2 457.5 -36.9 -41.6 63.3 0.22 -43.37 83.7 No
10/23/2006 17:35:18 CON271 FAI 10/23/2006 17:25:00 SCC 10/23/2006 18:25:00 B732 20300 410 65.6638 -147.804 6187.4 435.7 -39.7 -43.8 65.6 0.19 -43.7 89.8 No
10/23/2006 17:35:18 FTA575 FAI 10/23/2006 17:19:00 BTI 10/23/2006 18:48:00 B190 20000 210 65.6167 -147.233 6096. 441.3 -38.9 -43.2 64.8 0.19 -43.63 89.4 No
10/23/2006 17:36:18 FTA575 FAI 10/23/2006 17:19:00 BTI 10/23/2006 18:48:00 B190 21000 210 65.6833 -147.183 6400.8 422.6 -41.4 -45.2 67.6 0.17 -43.86 97.2 No
10/23/2006 17:37:18 FTA575 FAI 10/23/2006 17:19:00 BTI 10/23/2006 18:48:00 B190 21000 240 65.7333 -147.15 6400.8 422.6 -41.4 -45.2 67.6 0.17 -43.85 103. No
10/23/2006 17:56:18 ASA81 ANC 10/23/2006 17:29:00 FAI 10/23/2006 18:16:00 B734 36000 360 64. -148.5 10972.8 209.5 -47.1 -58.7 25.5 0.06 -53.07 100. No
10/23/2006 17:56:18 FTA504 FAI 10/23/2006 17:44:00 OTZ 10/23/2006 19:25:00 B190 15400 210 65.1 -148.667 4693.9 539.7 -29.6 -32.8 74.5 0.45 -40.71 47.2 No
10/23/2006 17:57:18 ASA81 ANC 10/23/2006 17:29:00 FAI 10/23/2006 18:16:00 B734 36000 360 64.115 -148.46 10972.8 209.5 -47.1 -58.7 25.5 0.06 -53.07 87.3 No
10/23/2006 17:57:18 FTA504 FAI 10/23/2006 17:44:00 OTZ 10/23/2006 19:25:00 B190 16600 210 65.1167 -148.783 5059.7 512.7 -31.4 -37.6 56.7 0.3 -42.65 52.8 No
10/23/2006 17:58:18 ASA81 ANC 10/23/2006 17:29:00 FAI 10/23/2006 18:07:24 B734 36000 360 64.2096 -148.428 10972.8 209.5 -47.1 -58.7 25.5 0.06 -53.06 76.9 No
10/23/2006 17:58:18 FTA504 FAI 10/23/2006 17:44:00 OTZ 10/23/2006 19:25:00 B190 17800 210 65.15 -148.917 5425.4 486.6 -33.7 -39.4 59. 0.27 -43.04 60.1 No
10/23/2006 17:59:18 ASA81 ANC 10/23/2006 17:29:00 FAI 10/23/2006 18:07:24 B734 36000 360 64.3084 -148.412 10972.8 209.5 -47.1 -58.7 25.5 0.06 -53.06 66.5 No
10/23/2006 17:59:18 FTA504 FAI 10/23/2006 17:44:00 OTZ 10/23/2006 19:25:00 B190 18900 220 65.1667 -149.05 5760.7 463.6 -36.2 -40.9 63.5 0.23 -43.22 66.4 No
10/23/2006 18:00:18 ASA81 ANC 10/23/2006 17:29:00 FAI 10/23/2006 18:07:24 B734 36000 360 64.4071 -148.397 10972.8 209.5 -47.1 -58.7 25.5 0.07 -53.06 56.2 No
10/23/2006 18:00:18 FTA504 FAI 10/23/2006 17:44:00 OTZ 10/23/2006 19:25:00 B190 20000 220 65.1833 -149.183 6096. 441.3 -39. -43.1 65.5 0.2 -43.58 72.8 No
10/23/2006 18:01:19 ASA81 ANC 10/23/2006 17:29:00 FAI 10/23/2006 18:07:24 B734 36000 360 64.4785 -148.368 10972.8 209.5 -47.1 -58.7 25.5 0.07 -53.06 48.6 No
10/23/2006 18:01:19 FTA504 FAI 10/23/2006 17:44:00 OTZ 10/23/2006 19:25:00 B190 20000 240 65.2167 -149.333 6096. 441.3 -39. -43.1 65.5 0.2 -43.57 80.8 No
10/23/2006 18:02:18 ASA81 ANC 10/23/2006 17:29:00 FAI 10/23/2006 18:07:24 B734 36000 360 64.55 -148.334 10972.8 209.5 -47.1 -58.7 25.5 0.07 -53.06 41. No
10/23/2006 18:02:18 FTA504 FAI 10/23/2006 17:44:00 OTZ 10/23/2006 19:25:00 B190 20000 260 65.2333 -149.483 6096. 441.3 -39. -43.1 65.6 0.2 -43.57 87.9 No
10/23/2006 18:03:18 ASA81 ANC 10/23/2006 17:29:00 FAI 10/23/2006 18:07:24 B734 36000 360 64.6223 -148.296 10972.8 209.5 -47.1 -58.7 25.6 0.07 -53.06 33.5 No
10/23/2006 18:03:18 FTA504 FAI 10/23/2006 17:44:00 OTZ 10/23/2006 19:25:00 B190 20000 260 65.2667 -149.633 6096. 441.3 -39. -43.1 65.6 0.2 -43.57 95.9 No
10/23/2006 18:04:18 ASA81 ANC 10/23/2006 17:29:00 FAI 10/23/2006 18:07:24 B734 36000 360 64.6946 -148.247 10972.8 209.5 -47.1 -58.7 25.6 0.07 -53.06 26. No
10/23/2006 18:04:18 FTA504 FAI 10/23/2006 17:44:00 OTZ 10/23/2006 19:25:00 B190 20000 270 65.3 -149.8 6096. 441.3 -39. -43.1 65.6 0.2 -43.57 104.5 No
10/23/2006 18:05:18 ASA81 ANC 10/23/2006 17:29:00 FAI 10/23/2006 18:07:24 B734 36000 360 64.7667 -148.18 10972.8 209.5 -47.1 -58.7 25.6 0.07 -53.06 18.5 No
10/23/2006 18:06:18 ASA81 ANC 10/23/2006 17:29:00 FAI 10/23/2006 18:07:24 B734 36000 360 64.7952 -148.122 10972.8 209.5 -47.1 -58.7 25.6 0.07 -53.06 14.5 No
10/23/2006 18:07:18 ASA81 ANC 10/23/2006 17:29:00 FAI 10/23/2006 18:07:24 B734 36000 360 64.7952 -148.122 10972.8 209.5 -47.1 -58.7 25.6 0.07 -53.06 14.5 No
10/23/2006 18:10:18 CFS8663 ANC 10/23/2006 17:30:00 FAI 10/23/2006 18:35:00 AT43 16000 310 64. -148.533 4876.8 525.9 -30.5 -35.3 63.8 0.37 -41.88 100.5 No
10/23/2006 18:11:18 CFS8663 ANC 10/23/2006 17:30:00 FAI 10/23/2006 18:35:00 AT43 16000 310 64.0956 -148.508 4876.8 525.9 -30.5 -35.3 63.8 0.37 -41.88 90.1 No
10/23/2006 18:12:18 CFS8663 ANC 10/23/2006 17:30:00 FAI 10/23/2006 18:35:00 AT43 16000 310 64.1788 -148.485 4876.8 525.9 -30.5 -35.3 63.9 0.37 -41.88 81.1 No
10/23/2006 18:13:18 CFS8663 ANC 10/23/2006 17:30:00 FAI 10/23/2006 18:21:47 AT43 16000 310 64.262 -148.463 4876.8 525.9 -30.5 -35.3 63.9 0.37 -41.88 72.1 No
10/23/2006 18:14:18 CFS8663 ANC 10/23/2006 17:30:00 FAI 10/23/2006 18:21:47 AT43 16000 310 64.3475 -148.453 4876.8 525.9 -30.5 -35.3 63.9 0.37 -41.87 63.3 No
10/23/2006 18:15:18 CFS8663 ANC 10/23/2006 17:30:00 FAI 10/23/2006 18:21:47 AT43 16000 310 64.4237 -148.422 4876.8 525.9 -30.5 -35.3 63.9 0.37 -41.87 55.2 No
10/23/2006 18:16:18 CFS8663 ANC 10/23/2006 17:30:00 FAI 10/23/2006 18:21:47 AT43 16000 310 64.5 -148.386 4876.8 525.9 -30.5 -35.3 64. 0.37 -41.87 47. No
10/23/2006 18:17:18 CFS8663 ANC 10/23/2006 17:30:00 FAI 10/23/2006 18:21:47 AT43 16000 310 64.5765 -148.346 4876.8 525.9 -30.5 -35.3 64. 0.37 -41.87 38.9 No
10/23/2006 18:18:18 CFS8663 ANC 10/23/2006 17:30:00 FAI 10/23/2006 18:21:47 AT43 16000 310 64.654 -148.297 4876.8 525.9 -30.5 -35.3 64. 0.37 -41.87 30.9 No
10/23/2006 18:19:18 CFS8663 ANC 10/23/2006 17:30:00 FAI 10/23/2006 18:21:47 AT43 16000 310 64.7319 -148.234 4876.8 525.9 -30.5 -35.3 64.1 0.37 -41.86 22.8 No
10/23/2006 18:20:18 CFS8663 ANC 10/23/2006 17:30:00 FAI 10/23/2006 18:21:47 AT43 16000 310 64.8 -148.017 4876.8 525.9 -30.5 -35.3 64.1 0.37 -41.86 10.1 No
10/23/2006 18:21:18 CFS8663 ANC 10/23/2006 17:30:00 FAI 10/23/2006 18:21:47 AT43 16000 310 64.8 -148.017 4876.8 525.9 -30.5 -35.3 64.1 0.37 -41.86 10.1 No
10/23/2006 19:00:18 CON132 SCC 10/23/2006 18:19:00 ANC 10/23/2006 19:45:46 B732 33000 410 65.7 -149.517 10058.4 240.6 -49.5 -58.2 36.1 0.06 -51.3 122.5 No
10/23/2006 19:01:18 CON132 SCC 10/23/2006 18:19:00 ANC 10/23/2006 19:45:46 B732 33000 410 65.5833 -149.533 10058.4 240.6 -49.5 -58.2 36.1 0.06 -51.3 113.4 No
10/23/2006 19:02:19 CON132 SCC 10/23/2006 18:19:00 ANC 10/23/2006 19:45:46 B732 33000 410 65.4667 -149.55 10058.4 240.6 -49.5 -58.2 36.2 0.06 -51.3 105.2 No
10/23/2006 19:03:19 CON132 SCC 10/23/2006 18:19:00 ANC 10/23/2006 19:45:46 B732 33000 410 65.3333 -149.583 10058.4 240.6 -49.5 -58.2 36.2 0.06 -51.3 97.6 No
10/23/2006 19:04:19 CON132 SCC 10/23/2006 18:19:00 ANC 10/23/2006 19:45:46 B732 33000 410 65.2167 -149.6 10058.4 240.6 -49.5 -58.2 36.2 0.06 -51.3 91.9 No
10/23/2006 19:05:19 CON132 SCC 10/23/2006 18:19:00 ANC 10/23/2006 19:45:46 B732 33000 410 65.1167 -149.633 10058.4 240.6 -49.5 -58.2 36.2 0.06 -51.3 89.1 No
10/23/2006 19:06:19 CON132 SCC 10/23/2006 18:19:00 ANC 10/23/2006 19:45:46 B732 33000 400 65. -149.65 10058.4 240.6 -49.5 -58.2 36.2 0.06 -51.3 86.6 No
10/23/2006 19:07:19 CON132 SCC 10/23/2006 18:19:00 ANC 10/23/2006 19:45:46 B732 33000 400 64.8833 -149.667 10058.4 240.6 -49.5 -58.2 36.2 0.06 -51.29 85.9 No
10/23/2006 19:08:19 CON132 SCC 10/23/2006 18:19:00 ANC 10/23/2006 19:45:46 B732 33000 410 64.7667 -149.683 10058.4 240.6 -49.5 -58.2 36.2 0.06 -51.29 87.2 No
10/23/2006 19:09:19 CON132 SCC 10/23/2006 18:19:00 ANC 10/23/2006 19:45:46 B732 33000 410 64.65 -149.717 10058.4 240.6 -49.5 -58.2 36.2 0.06 -51.29 91.1 No
10/23/2006 19:10:19 CON132 SCC 10/23/2006 18:19:00 ANC 10/23/2006 19:45:46 B732 33000 410 64.5333 -149.733 10058.4 240.6 -49.6 -58.2 36.3 0.06 -51.29 96. No
10/23/2006 19:11:19 CON132 SCC 10/23/2006 18:19:00 ANC 10/23/2006 19:45:46 B732 33000 410 64.4333 -149.75 10058.4 240.6 -49.6 -58.2 36.3 0.06 -51.29 101.4 No
10/23/2006 19:12:19 CON132 SCC 10/23/2006 18:19:00 ANC 10/23/2006 19:45:46 B732 33000 400 64.3333 -149.767 10058.4 240.6 -49.6 -58.2 36.3 0.06 -51.29 107.6 No
10/23/2006 19:13:19 CON132 SCC 10/23/2006 18:19:00 ANC 10/23/2006 19:45:46 B732 33000 410 64.2167 -149.783 10058.4 240.6 -49.6 -58.2 36.3 0.06 -51.29 115.8 No
10/23/2006 19:14:19 CON132 SCC 10/23/2006 18:19:00 ANC 10/23/2006 19:45:46 B732 33000 400 64.1 -149.8 10058.4 240.6 -49.6 -58.2 36.3 0.06 -51.29 124.7 No
10/23/2006 19:15:19 CON132 SCC 10/23/2006 18:19:00 ANC 10/23/2006 19:45:46 B732 33000 400 64. -149.817 10058.4 240.6 -49.6 -58.2 36.3 0.06 -51.29 133. No
10/23/2006 19:27:19 FTA598 FAI 10/23/2006 19:17:00 ANC 10/23/2006 20:25:00 B190 15900 190 64.6167 -148.15 4846.3 528.3 -30.4 -34.6 67.5 0.39 -41.55 30.2 No
10/23/2006 19:28:19 FTA598 FAI 10/23/2006 19:17:00 ANC 10/23/2006 20:25:00 B190 17400 210 64.55 -148.2 5303.5 495.2 -33. -38.4 60.8 0.29 -42.73 37.9 No
10/23/2006 19:29:19 FTA598 FAI 10/23/2006 19:17:00 ANC 10/23/2006 20:25:00 B190 19000 210 64.5 -148.25 5791.2 461.6 -36.6 -40.8 66.7 0.24 -43.02 43.9 No
10/23/2006 19:30:19 FTA598 FAI 10/23/2006 19:17:00 ANC 10/23/2006 20:25:00 B190 20300 220 64.45 -148.3 6187.4 435.7 -39.9 -43.5 68.8 0.19 -43.45 49.9 No
10/23/2006 19:31:19 FTA598 FAI 10/23/2006 19:17:00 ANC 10/23/2006 20:25:00 B190 21000 210 64.3833 -148.35 6400.8 422.6 -41.6 -45. 70.4 0.17 -43.63 57.6 No
10/23/2006 19:32:19 FTA598 FAI 10/23/2006 19:17:00 ANC 10/23/2006 20:25:00 B190 21000 240 64.3333 -148.417 6400.8 422.6 -41.6 -45. 70.4 0.17 -43.63 64. No
10/23/2006 19:33:19 ASA82 FAI 10/23/2006 19:27:00 ANC 10/23/2006 20:18:00 B734 17700 350 64.5 -148.433 5395. 488.8 -33.7 -38.7 62.6 0.28 -42.74 48.3 No
10/23/2006 19:33:19 FTA598 FAI 10/23/2006 19:17:00 ANC 10/23/2006 20:25:00 B190 21000 250 64.2667 -148.467 6400.8 422.6 -41.6 -45. 70.4 0.17 -43.62 71.7 No
10/23/2006 19:34:19 ASA82 FAI 10/23/2006 19:27:00 ANC 10/23/2006 20:18:00 B734 21100 360 64.4 -148.55 6431.3 420.7 -41.8 -45.2 70.7 0.17 -43.65 60.6 No
10/23/2006 19:34:19 FTA598 FAI 10/23/2006 19:17:00 ANC 10/23/2006 20:25:00 B190 21000 260 64.2 -148.517 6400.8 422.6 -41.6 -45. 70.5 0.17 -43.62 79.5 No
10/23/2006 19:35:19 ASA82 FAI 10/23/2006 19:27:00 ANC 10/23/2006 20:13:31 B734 23700 380 64.3 -148.65 7223.8 373.7 -48.5 -51.3 72.5 0.09 -44.71 72.5 Yes
10/23/2006 19:35:19 FTA598 FAI 10/23/2006 19:17:00 ANC 10/23/2006 20:25:00 B190 21000 260 64.1167 -148.583 6400.8 422.6 -41.6 -45. 70.5 0.17 -43.62 89.2 No
10/23/2006 19:36:19 ASA82 FAI 10/23/2006 19:27:00 ANC 10/23/2006 20:13:31 B734 26200 390 64.2 -148.717 7985.8 332.3 -54.9 -57.7 71.2 0.05 -46.01 83.7 Yes
10/23/2006 19:36:19 FTA598 FAI 10/23/2006 19:17:00 ANC 10/23/2006 20:25:00 B190 21000 260 64.05 -148.633 6400.8 422.6 -41.6 -45. 70.5 0.17 -43.62 97. No
10/23/2006 19:37:19 ASA82 FAI 10/23/2006 19:27:00 ANC 10/23/2006 20:13:31 B734 28300 400 64.1 -148.8 8625.8 300.4 -56.6 -60.1 64.3 0.04 -47.55 95.3 Yes
10/23/2006 19:37:19 FTA598 FAI 10/23/2006 19:17:00 ANC 10/23/2006 20:25:00 B190 21000 270 63.9833 -148.683 6400.8 422.6 -41.6 -44.9 70.5 0.17 -43.62 104.7 No
10/23/2006 19:38:19 ASA82 FAI 10/23/2006 19:27:00 ANC 10/23/2006 20:13:31 B734 29900 420 64. -148.867 9113.5 278.3 -55.1 -60.1 54.1 0.04 -48.96 106.6 Yes
10/23/2006 20:16:19 ASA143 SCC 10/23/2006 19:38:00 ANC 10/23/2006 21:15:06 B73Q 33000 420 65.6836 -149.658 10058.4 240.5 -49.6 -58. 37.1 0.06 -51.26 125.6 No
10/23/2006 20:17:19 ASA143 SCC 10/23/2006 19:38:00 ANC 10/23/2006 21:15:06 B73Q 33000 420 65.5678 -149.7 10058.4 240.5 -49.6 -58. 37.1 0.06 -51.26 117.9 No
10/23/2006 20:18:19 ASA143 SCC 10/23/2006 19:38:00 ANC 10/23/2006 21:15:06 B73Q 33000 420 65.4503 -149.708 10058.4 240.5 -49.6 -58. 37.1 0.06 -51.26 109.9 No
10/23/2006 20:19:19 ASA143 SCC 10/23/2006 19:38:00 ANC 10/23/2006 21:15:06 B73Q 33000 430 65.45 -149.733 10058.4 240.5 -49.6 -58. 37.1 0.06 -51.25 110.8 No
10/23/2006 20:20:19 ASA143 SCC 10/23/2006 19:38:00 ANC 10/23/2006 21:15:06 B73Q 33000 420 65.3333 -149.75 10058.4 240.5 -49.6 -58. 37.2 0.06 -51.25 104.3 No
10/23/2006 20:21:19 ASA143 SCC 10/23/2006 19:38:00 ANC 10/23/2006 21:15:06 B73Q 33000 430 65.2167 -149.783 10058.4 240.5 -49.6 -58. 37.2 0.06 -51.25 99.8 No
10/23/2006 20:22:19 ASA143 SCC 10/23/2006 19:38:00 ANC 10/23/2006 21:15:06 B73Q 33000 410 65.1 -149.8 10058.4 240.5 -49.6 -58. 37.2 0.06 -51.25 96.1 No
10/23/2006 20:23:19 ASA143 SCC 10/23/2006 19:38:00 ANC 10/23/2006 21:15:06 B73Q 33000 420 64.9833 -149.833 10058.4 240.5 -49.6 -58. 37.2 0.06 -51.25 94.8 No
10/23/2006 20:24:19 ASA143 SCC 10/23/2006 19:38:00 ANC 10/23/2006 21:15:06 B73Q 33000 420 64.8667 -149.85 10058.4 240.5 -49.6 -58. 37.2 0.06 -51.25 94.5 No
10/23/2006 20:25:19 ASA143 SCC 10/23/2006 19:38:00 ANC 10/23/2006 21:15:06 B73Q 33000 420 64.7333 -149.883 10058.4 240.5 -49.6 -58. 37.2 0.07 -51.25 97.1 No
10/23/2006 20:26:19 ASA143 SCC 10/23/2006 19:38:00 ANC 10/23/2006 21:15:06 B73Q 33000 420 64.6167 -149.9 10058.4 240.5 -49.6 -58. 37.2 0.07 -51.25 100.5 No
10/23/2006 20:27:19 ASA143 SCC 10/23/2006 19:38:00 ANC 10/23/2006 21:15:06 B73Q 33000 430 64.5 -149.933 10058.4 240.5 -49.6 -58. 37.2 0.07 -51.25 106.1 No
10/23/2006 20:28:19 ASA143 SCC 10/23/2006 19:38:00 ANC 10/23/2006 21:15:06 B73Q 33000 420 64.4 -149.95 10058.4 240.5 -49.6 -58. 37.3 0.07 -51.25 111.5 No
10/23/2006 20:48:19 ASA97 ANC 10/23/2006 20:21:00 FAI 10/23/2006 21:08:00 B734 36000 410 63.9667 -148.533 10972.8 209.2 -47.6 -58.4 27.6 0.07 -52.99 104. No
10/23/2006 20:49:19 ASA97 ANC 10/23/2006 20:21:00 FAI 10/23/2006 21:08:00 B734 36000 400 64.0833 -148.467 10972.8 209.2 -47.6 -58.4 27.6 0.07 -52.99 90.7 No
10/23/2006 20:50:19 ASA97 ANC 10/23/2006 20:21:00 FAI 10/23/2006 20:58:35 B734 36000 400 64.272 -148.42 10972.8 209.2 -47.6 -58.4 27.6 0.07 -52.99 70.3 No
10/23/2006 20:51:19 ASA97 ANC 10/23/2006 20:21:00 FAI 10/23/2006 20:58:35 B734 36000 400 64.3825 -148.408 10972.8 209.2 -47.6 -58.4 27.6 0.07 -52.99 58.9 No
10/23/2006 20:52:18 ASA97 ANC 10/23/2006 20:21:00 FAI 10/23/2006 20:58:35 B734 36000 400 64.493 -148.396 10972.8 209.2 -47.6 -58.4 27.7 0.07 -52.99 47.9 No
10/23/2006 20:53:19 ASA97 ANC 10/23/2006 20:21:00 FAI 10/23/2006 20:58:35 B734 36000 400 64.6035 -148.385 10972.8 209.2 -47.6 -58.4 27.7 0.07 -52.99 37.8 No
10/23/2006 20:54:19 ASA97 ANC 10/23/2006 20:21:00 FAI 10/23/2006 20:58:35 B734 36000 400 64.6601 -148.339 10972.8 209.2 -47.6 -58.4 27.7 0.07 -52.99 31.8 No
10/23/2006 20:55:19 ASA97 ANC 10/23/2006 20:21:00 FAI 10/23/2006 20:58:35 B734 36000 400 64.7172 -148.284 10972.8 209.2 -47.6 -58.4 27.7 0.07 -52.99 25.7 No
10/23/2006 20:56:19 ASA97 ANC 10/23/2006 20:21:00 FAI 10/23/2006 20:58:35 B734 36000 400 64.7713 -148.209 10972.8 209.2 -47.6 -58.4 27.7 0.07 -52.99 19.4 No
10/23/2006 20:57:19 ASA97 ANC 10/23/2006 20:21:00 FAI 10/23/2006 20:58:35 B734 36000 400 64.7897 -148.156 10972.8 209.2 -47.6 -58.4 27.7 0.07 -52.98 16.2 No
10/23/2006 20:58:19 ASA97 ANC 10/23/2006 20:21:00 FAI 10/23/2006 20:58:35 B734 36000 400 64.7897 -148.156 10972.8 209.2 -47.6 -58.4 27.7 0.07 -52.98 16.2 No
10/23/2006 20:58:19 FTA60 FAI 10/23/2006 20:47:00 SCC 10/23/2006 22:16:00 B190 16000 210 65.0333 -148.067 4876.8 526.1 -30.7 -34.7 68.7 0.39 -41.49 22.2 No
10/23/2006 20:59:19 FTA60 FAI 10/23/2006 20:47:00 SCC 10/23/2006 22:16:00 B190 17300 220 65.1 -148.067 5273. 497.5 -32.9 -37.6 65. 0.31 -42.38 29. No
10/23/2006 21:00:19 FTA60 FAI 10/23/2006 20:47:00 SCC 10/23/2006 22:16:00 B190 18600 230 65.15 -148.067 5669.3 469.9 -35.9 -39.7 69.1 0.26 -42.64 34.3 No
10/23/2006 21:01:20 FTA60 FAI 10/23/2006 20:47:00 SCC 10/23/2006 22:16:00 B190 20000 220 65.2167 -148.083 6096. 441.3 -39.3 -42.6 70.8 0.2 -43.15 41.6 No
10/23/2006 21:02:19 FTA60 FAI 10/23/2006 20:47:00 SCC 10/23/2006 22:16:00 B190 20000 230 65.2833 -148.083 6096. 441.3 -39.3 -42.6 70.8 0.2 -43.15 48.8 No
10/23/2006 21:03:19 FTA60 FAI 10/23/2006 20:47:00 SCC 10/23/2006 22:16:00 B190 20000 270 65.35 -148.1 6096. 441.3 -39.3 -42.6 70.8 0.2 -43.14 56.2 No
10/23/2006 21:04:18 FTA60 FAI 10/23/2006 20:47:00 SCC 10/23/2006 22:16:00 B190 20000 270 65.4333 -148.117 6096. 441.3 -39.3 -42.6 70.9 0.2 -43.14 65.4 No
10/23/2006 21:05:19 CFS7663 FAI 10/23/2006 20:58:00 ANC 10/23/2006 22:10:00 AT43 15500 210 64.4333 -148.117 4724.4 537.6 -29.9 -33.2 73.6 0.44 -40.83 48.7 No
10/23/2006 21:05:19 FTA60 FAI 10/23/2006 20:47:00 SCC 10/23/2006 22:16:00 B190 20000 280 65.5 -148.133 6096. 441.3 -39.3 -42.6 70.9 0.2 -43.14 72.8 No
10/23/2006 21:06:19 CFS7663 FAI 10/23/2006 20:58:00 ANC 10/23/2006 22:09:32 AT43 17100 210 64.3833 -148.167 5212.1 501.8 -32.6 -37.2 64.9 0.32 -42.29 54.7 No
10/23/2006 21:06:19 FTA60 FAI 10/23/2006 20:47:00 SCC 10/23/2006 22:16:00 B190 20000 280 65.5833 -148.133 6096. 441.3 -39.3 -42.6 70.9 0.2 -43.14 82. No
10/23/2006 21:07:19 CFS7663 FAI 10/23/2006 20:58:00 ANC 10/23/2006 22:09:32 AT43 18300 210 64.3333 -148.217 5577.8 476.1 -35.1 -39. 68.9 0.28 -42.52 60.7 No
10/23/2006 21:07:19 FTA60 FAI 10/23/2006 20:47:00 SCC 10/23/2006 22:16:00 B190 20000 280 65.6667 -148.15 6096. 441.3 -39.3 -42.6 71. 0.2 -43.13 91.2 No
10/23/2006 21:08:19 CFS7663 FAI 10/23/2006 20:58:00 ANC 10/23/2006 22:09:32 AT43 19000 220 64.2833 -148.267 5791.2 461.7 -36.8 -40.5 69.9 0.25 -42.76 66.7 No
10/23/2006 21:08:19 FTA60 FAI 10/23/2006 20:47:00 SCC 10/23/2006 22:16:00 B190 20000 280 65.7333 -148.15 6096. 441.3 -39.3 -42.6 71. 0.2 -43.13 98.6 No
10/23/2006 21:09:19 CFS7663 FAI 10/23/2006 20:58:00 ANC 10/23/2006 22:09:32 AT43 19000 260 64.2167 -148.333 5791.2 461.7 -36.8 -40.5 69.9 0.25 -42.75 74.7 No
10/23/2006 21:09:19 CON272 SCC 10/23/2006 20:28:00 FAI 10/23/2006 21:28:00 B732 33000 420 65.7167 -148.083 10058.4 240.5 -49.7 -57.9 37.8 0.07 -51.23 96.3 No
10/23/2006 21:10:19 CFS7663 FAI 10/23/2006 20:58:00 ANC 10/23/2006 22:09:32 AT43 19000 270 64.1333 -148.4 5791.2 461.7 -36.8 -40.5 70. 0.25 -42.75 84.5 No
10/23/2006 21:10:19 CON272 SCC 10/23/2006 20:28:00 FAI 10/23/2006 21:28:00 B732 33000 440 65.6 -148.067 10058.4 240.5 -49.7 -57.9 37.8 0.07 -51.23 83.4 No
10/23/2006 21:10:19 CON351 ANC 10/23/2006 20:43:00 UBW 10/23/2006 22:13:00 B732 32000 430 64.0333 -149.85 9753.6 251.9 -50.5 -57.9 41.2 0.06 -50.62 131.5 No
10/23/2006 21:11:19 CFS7663 FAI 10/23/2006 20:58:00 ANC 10/23/2006 22:09:32 AT43 19000 270 64.0667 -148.467 5791.2 461.7 -36.8 -40.5 70. 0.25 -42.75 92.5 No
10/23/2006 21:11:19 CON272 SCC 10/23/2006 20:28:00 FAI 10/23/2006 21:28:00 B732 33000 430 65.4833 -148.067 10058.4 240.5 -49.7 -57.9 37.8 0.07 -51.23 70.5 No
10/23/2006 21:11:19 CON351 ANC 10/23/2006 20:43:00 UBW 10/23/2006 22:13:00 B732 32000 430 64.15 -149.85 9753.6 251.9 -50.5 -57.9 41.2 0.06 -50.62 122.9 No
10/23/2006 21:12:19 CFS7663 FAI 10/23/2006 20:58:00 ANC 10/23/2006 22:09:32 AT43 19000 270 64. -148.533 5791.2 461.7 -36.9 -40.5 70. 0.25 -42.75 100.5 No
10/23/2006 21:12:19 CON272 SCC 10/23/2006 20:28:00 FAI 10/23/2006 21:19:36 B732 33000 430 65.3181 -148.067 10058.4 240.5 -49.7 -57.9 37.8 0.07 -51.23 52.4 No
10/23/2006 21:12:19 CON351 ANC 10/23/2006 20:43:00 UBW 10/23/2006 22:13:00 B732 32000 440 64.2833 -149.85 9753.6 251.9 -50.5 -57.9 41.2 0.06 -50.62 114. No
10/23/2006 21:13:20 CON272 SCC 10/23/2006 20:28:00 FAI 10/23/2006 21:19:36 B732 33000 430 65.1987 -148.067 10058.4 240.5 -49.7 -57.9 37.8 0.07 -51.22 39.5 No
10/23/2006 21:13:20 CON351 ANC 10/23/2006 20:43:00 UBW 10/23/2006 22:13:00 B732 32000 440 64.4 -149.833 9753.6 251.9 -50.5 -57.9 41.2 0.06 -50.62 106.6 No
10/23/2006 21:14:19 CON272 SCC 10/23/2006 20:28:00 FAI 10/23/2006 21:19:36 B732 33000 430 65.0792 -148.067 10058.4 240.5 -49.7 -57.9 37.9 0.07 -51.22 26.8 No
10/23/2006 21:14:19 CON351 ANC 10/23/2006 20:43:00 UBW 10/23/2006 22:13:00 B732 32000 430 64.5167 -149.833 9753.6 251.9 -50.5 -57.9 41.2 0.06 -50.62 101. No
10/23/2006 21:15:19 CON272 SCC 10/23/2006 20:28:00 FAI 10/23/2006 21:19:36 B732 33000 430 64.9598 -148.067 10058.4 240.5 -49.7 -57.9 37.9 0.07 -51.22 15.4 No
10/23/2006 21:15:19 CON351 ANC 10/23/2006 20:43:00 UBW 10/23/2006 22:13:00 B732 32000 430 64.6333 -149.833 9753.6 251.9 -50.5 -57.9 41.2 0.06 -50.62 96.9 No
10/23/2006 21:16:19 CON272 SCC 10/23/2006 20:28:00 FAI 10/23/2006 21:19:36 B732 33000 430 64.9164 -148.04 10058.4 240.5 -49.7 -57.9 37.9 0.07 -51.22 11.2 No
10/23/2006 21:16:19 CON351 ANC 10/23/2006 20:43:00 UBW 10/23/2006 22:13:00 B732 32000 440 64.7667 -149.833 9753.6 251.9 -50.5 -57.9 41.3 0.06 -50.62 94.3 No
10/23/2006 21:17:19 CON272 SCC 10/23/2006 20:28:00 FAI 10/23/2006 21:19:36 B732 33000 430 64.8731 -148.006 10058.4 240.5 -49.7 -57.9 37.9 0.07 -51.22 7.6 No
10/23/2006 21:17:19 CON351 ANC 10/23/2006 20:43:00 UBW 10/23/2006 22:13:00 B732 32000 430 64.8833 -149.817 9753.6 251.9 -50.5 -57.9 41.3 0.06 -50.62 93. No
10/23/2006 21:18:19 CON272 SCC 10/23/2006 20:28:00 FAI 10/23/2006 21:19:36 B732 33000 430 64.8294 -147.957 10058.4 240.5 -49.7 -57.9 37.9 0.07 -51.22 5.9 No
10/23/2006 21:18:19 CON351 ANC 10/23/2006 20:43:00 UBW 10/23/2006 22:13:00 B732 32000 440 65.0167 -149.817 9753.6 251.9 -50.5 -57.9 41.3 0.06 -50.62 94.6 No
10/23/2006 21:19:19 CON272 SCC 10/23/2006 20:28:00 FAI 10/23/2006 21:19:36 B732 33000 430 64.7838 -147.817 10058.4 240.5 -49.7 -57.9 37.9 0.07 -51.22 8.2 No
10/23/2006 21:19:19 CON351 ANC 10/23/2006 20:43:00 UBW 10/23/2006 22:13:00 B732 32000 430 65.1333 -149.817 9753.6 251.9 -50.5 -57.9 41.3 0.06 -50.61 97.9 No
10/23/2006 21:20:19 CON351 ANC 10/23/2006 20:43:00 UBW 10/23/2006 22:13:00 B732 32000 430 65.25 -149.817 9753.6 251.9 -50.5 -57.9 41.3 0.06 -50.61 102.7 No
10/23/2006 21:21:19 CON351 ANC 10/23/2006 20:43:00 UBW 10/23/2006 22:13:00 B732 32000 430 65.3667 -149.8 9753.6 251.9 -50.5 -57.9 41.3 0.06 -50.61 108.2 No
10/23/2006 21:22:19 CON351 ANC 10/23/2006 20:43:00 UBW 10/23/2006 22:13:00 B732 32000 430 65.5 -149.8 9753.6 251.9 -50.5 -57.9 41.3 0.06 -50.61 116.7 No
10/23/2006 21:23:19 CON351 ANC 10/23/2006 20:43:00 UBW 10/23/2006 22:13:00 B732 32000 420 65.6167 -149.8 9753.6 251.9 -50.5 -57.9 41.3 0.06 -50.61 125.1 No
10/23/2006 21:24:19 CON351 ANC 10/23/2006 20:43:00 UBW 10/23/2006 22:13:00 B732 32000 430 65.7333 -149.8 9753.6 251.9 -50.5 -57.9 41.3 0.06 -50.61 134.2 No
10/23/2006 21:56:19 CON272 FAI 10/23/2006 21:50:00 ANC 10/23/2006 22:39:00 B732 15700 340 64.5833 -148.183 4785.4 533. -30.3 -33.7 72.4 0.42 -41.03 34.2 No
10/23/2006 21:57:19 CON272 FAI 10/23/2006 21:50:00 ANC 10/23/2006 22:39:00 B732 17300 380 64.4833 -148.267 5273. 497.5 -33. -37.1 67.9 0.33 -42.14 45.9 No
10/23/2006 21:58:19 CON272 FAI 10/23/2006 21:50:00 ANC 10/23/2006 22:39:00 B732 19400 400 64.4 -148.35 5913.1 453.6 -37.9 -41.2 71.9 0.23 -42.77 56. No
10/23/2006 21:59:19 ASA94 FAI 10/23/2006 21:53:00 ANC 10/23/2006 22:44:00 B734 17500 350 64.6167 -148.15 5334. 493.2 -33.5 -37.5 68.6 0.32 -42.18 30.2 No
10/23/2006 21:59:19 CON272 FAI 10/23/2006 21:50:00 ANC 10/23/2006 22:39:00 B732 22400 410 64.2833 -148.433 6827.5 396.6 -45.3 -47.8 75.7 0.13 -43.81 69.4 Yes
10/23/2006 22:00:19 ASA94 FAI 10/23/2006 21:53:00 ANC 10/23/2006 22:44:00 B734 20500 360 64.5167 -148.233 6248.4 432. -40.6 -43.6 73.3 0.19 -43.15 41.9 No
10/23/2006 22:00:19 CON272 FAI 10/23/2006 21:50:00 ANC 10/23/2006 22:39:00 B732 26000 410 64.1667 -148.55 7924.8 335.3 -54.7 -57.4 72.4 0.05 -45.81 83.5 Yes
10/23/2006 22:01:19 ASA94 FAI 10/23/2006 21:53:00 ANC 10/23/2006 22:44:00 B734 23200 380 64.4167 -148.317 7071.4 382.2 -47.4 -49.9 74.9 0.1 -44.25 53.6 Yes
10/23/2006 22:01:19 CON272 FAI 10/23/2006 21:50:00 ANC 10/23/2006 22:39:00 B732 28500 400 64.0667 -148.633 8686.8 297.5 -56.7 -60.5 62.1 0.04 -47.79 95.3 Yes
10/23/2006 22:02:19 ASA94 FAI 10/23/2006 21:53:00 ANC 10/23/2006 22:44:00 B734 25400 390 64.3333 -148.4 7741.9 344.8 -53.1 -55.8 72.8 0.06 -45.5 63.7 Yes
10/23/2006 22:02:19 CON272 FAI 10/23/2006 21:50:00 ANC 10/23/2006 22:39:00 B732 29000 410 63.9667 -148.717 8839.2 290.5 -56.4 -60.5 59.7 0.04 -48.19 107.1 Yes
10/23/2006 22:02:19 FTA582 FAI 10/23/2006 22:01:00 GAL 10/23/2006 23:06:31 B190 38000 460 64.8158 -147.858 11582.4 191. -47.8 -58.7 27.3 0.07 -53.85 4.5 No
10/23/2006 22:03:19 ASA94 FAI 10/23/2006 21:53:00 ANC 10/23/2006 22:44:00 B734 27500 390 64.2167 -148.5 8382. 312.1 -56.6 -60. 65.9 0.04 -47.05 77.5 Yes
10/23/2006 22:03:19 FTA582 FAI 10/23/2006 22:01:00 GAL 10/23/2006 23:06:31 B190 38000 460 64.8317 -148.085 11582.4 191. -47.8 -58.7 27.3 0.07 -53.85 11.5 No
10/23/2006 22:04:19 ASA94 FAI 10/23/2006 21:53:00 ANC 10/23/2006 22:44:00 B734 29400 410 64.1 -148.583 8961.1 285. -56.1 -60.5 57.9 0.04 -48.5 90.9 Yes
10/23/2006 22:04:19 FTA582 FAI 10/23/2006 22:01:00 GAL 10/23/2006 23:06:31 B190 38000 460 64.8406 -148.213 11582.4 191. -47.8 -58.7 27.3 0.07 -53.85 17.3 No
10/23/2006 22:05:19 ASA94 FAI 10/23/2006 21:53:00 ANC 10/23/2006 22:44:00 B734 31400 410 64. -148.667 9570.7 259.2 -51.3 -58.2 43.5 0.06 -50.23 102.7 Yes
10/23/2006 22:05:19 FTA582 FAI 10/23/2006 22:01:00 GAL 10/23/2006 23:06:31 B190 38000 460 64.8496 -148.34 11582.4 191. -47.8 -58.7 27.3 0.07 -53.85 23.2 No
10/23/2006 22:06:19 FTA582 FAI 10/23/2006 22:01:00 GAL 10/23/2006 23:06:31 B190 38000 460 64.8585 -148.468 11582.4 191. -47.8 -58.7 27.3 0.07 -53.85 29.2 No
10/23/2006 22:07:19 FTA582 FAI 10/23/2006 22:01:00 GAL 10/23/2006 23:06:31 B190 38000 460 64.8616 -148.529 11582.4 191. -47.8 -58.7 27.3 0.07 -53.85 32.1 No
10/23/2006 22:38:18 ASA99 ANC 10/23/2006 22:10:00 FAI 10/23/2006 22:57:00 B734 36000 350 64. -148.5 10972.8 209.1 -47.9 -58.2 29. 0.07 -52.94 100. No
10/23/2006 22:39:19 ASA99 ANC 10/23/2006 22:10:00 FAI 10/23/2006 22:57:00 B734 36000 350 64.1246 -148.464 10972.8 209.1 -47.9 -58.2 29. 0.07 -52.94 86.4 No
10/23/2006 22:40:18 ASA99 ANC 10/23/2006 22:10:00 FAI 10/23/2006 22:49:37 B734 36000 350 64.2181 -148.438 10972.8 209.1 -47.9 -58.2 29. 0.07 -52.94 76.2 No
10/23/2006 22:41:19 ASA99 ANC 10/23/2006 22:10:00 FAI 10/23/2006 22:49:37 B734 36000 350 64.3146 -148.426 10972.8 209.1 -47.9 -58.2 29. 0.07 -52.94 66.1 No
10/23/2006 22:42:19 ASA99 ANC 10/23/2006 22:10:00 FAI 10/23/2006 22:49:37 B734 36000 350 64.4111 -148.414 10972.8 209.1 -47.9 -58.2 29. 0.07 -52.94 56.2 No
10/23/2006 22:43:19 ASA99 ANC 10/23/2006 22:10:00 FAI 10/23/2006 22:49:37 B734 36000 350 64.4798 -148.385 10972.8 209.1 -47.9 -58.2 29. 0.07 -52.94 48.9 No
10/23/2006 22:44:19 ASA99 ANC 10/23/2006 22:10:00 FAI 10/23/2006 22:49:37 B734 36000 350 64.5485 -148.351 10972.8 209.1 -47.9 -58.2 29.1 0.07 -52.94 41.6 No
10/23/2006 22:45:19 ASA99 ANC 10/23/2006 22:10:00 FAI 10/23/2006 22:49:37 B734 36000 350 64.618 -148.313 10972.8 209.1 -47.9 -58.2 29.1 0.07 -52.94 34.3 No
10/23/2006 22:46:19 ASA99 ANC 10/23/2006 22:10:00 FAI 10/23/2006 22:49:37 B734 36000 350 64.6871 -148.264 10972.8 209.1 -47.9 -58.2 29.1 0.07 -52.94 27.2 No
10/23/2006 22:47:19 ASA99 ANC 10/23/2006 22:10:00 FAI 10/23/2006 22:49:37 B734 36000 350 64.7562 -148.2 10972.8 209.1 -47.9 -58.2 29.1 0.07 -52.93 19.9 No
10/23/2006 22:48:19 ASA99 ANC 10/23/2006 22:10:00 FAI 10/23/2006 22:49:37 B734 36000 350 64.783 -148.151 10972.8 209. -47.9 -58.2 29.1 0.07 -52.93 16.4 No
10/23/2006 22:49:19 ASA99 ANC 10/23/2006 22:10:00 FAI 10/23/2006 22:49:37 B734 36000 350 64.783 -148.151 10972.8 209. -47.9 -58.2 29.1 0.07 -52.93 16.4 No
10/23/2006 22:53:19 ASA146 ANC 10/23/2006 22:26:00 SCC 10/24/2006 00:00:00 B73Q 32000 420 63.9664 -149.325 9753.6 251.9 -50.4 -57.6 42.3 0.07 -50.57 121. No
10/23/2006 22:54:19 ASA146 ANC 10/23/2006 22:26:00 SCC 10/24/2006 00:00:00 B73Q 32000 430 64.1026 -149.31 9753.6 251.9 -50.4 -57.6 42.3 0.07 -50.57 108.6 No
10/23/2006 22:55:19 ASA146 ANC 10/23/2006 22:26:00 SCC 10/24/2006 00:00:00 B73Q 32000 420 64.2167 -149.317 9753.6 251.9 -50.4 -57.6 42.3 0.07 -50.57 99.3 No
10/23/2006 22:55:19 FTA582 FAI 10/23/2006 22:01:00 GAL 10/23/2006 23:06:31 B190 38000 460 64.2073 -145.77 11582.4 191. -47.9 -58.6 28. 0.07 -53.82 121.9 No
10/23/2006 22:56:19 ASA146 ANC 10/23/2006 22:26:00 SCC 10/24/2006 00:00:00 B73Q 32000 420 64.3333 -149.283 9753.6 251.8 -50.4 -57.6 42.3 0.07 -50.57 89.3 No
10/23/2006 22:56:19 FTA582 FAI 10/23/2006 22:01:00 GAL 10/23/2006 23:06:31 B190 38000 460 64.3057 -146.233 11582.4 191. -47.9 -58.6 28.1 0.07 -53.82 97.9 No
10/23/2006 22:57:19 ASA146 ANC 10/23/2006 22:26:00 SCC 10/24/2006 00:00:00 B73Q 32000 430 64.45 -149.267 9753.6 251.8 -50.4 -57.6 42.3 0.07 -50.57 80.8 No
10/23/2006 22:58:19 ASA146 ANC 10/23/2006 22:26:00 SCC 10/24/2006 00:00:00 B73Q 32000 430 64.5667 -149.25 9753.6 251.8 -50.4 -57.6 42.3 0.07 -50.57 73.6 No
10/23/2006 22:59:19 ASA146 ANC 10/23/2006 22:26:00 SCC 10/24/2006 00:00:00 B73Q 32000 430 64.6833 -149.233 9753.6 251.8 -50.4 -57.6 42.4 0.07 -50.56 68.1 No
10/23/2006 23:00:19 ASA146 ANC 10/23/2006 22:26:00 SCC 10/24/2006 00:00:00 B73Q 32000 430 64.8167 -149.217 9753.6 251.8 -50.4 -57.6 42.4 0.07 -50.56 64.7 No
10/23/2006 23:01:19 ASA146 ANC 10/23/2006 22:26:00 SCC 10/24/2006 00:00:00 B73Q 32000 430 64.9519 -149.21 9753.6 251.8 -50.4 -57.6 42.4 0.07 -50.56 65.1 No
10/23/2006 23:02:19 ASA146 ANC 10/23/2006 22:26:00 SCC 10/24/2006 00:00:00 B73Q 32000 430 65.0528 -149.217 9753.6 251.8 -50.4 -57.6 42.4 0.07 -50.56 68.2 No
10/23/2006 23:03:19 ASA146 ANC 10/23/2006 22:26:00 SCC 10/24/2006 00:00:00 B73Q 32000 430 65.1693 -149.194 9753.6 251.8 -50.4 -57.6 42.4 0.07 -50.56 72.4 No
10/23/2006 23:04:18 ASA146 ANC 10/23/2006 22:26:00 SCC 10/24/2006 00:00:00 B73Q 32000 430 65.2859 -149.177 9753.6 251.8 -50.4 -57.6 42.4 0.07 -50.56 78.9 No
10/23/2006 23:05:19 ASA146 ANC 10/23/2006 22:26:00 SCC 10/24/2006 00:00:00 B73Q 32000 430 65.4193 -149.16 9753.6 251.8 -50.4 -57.6 42.4 0.07 -50.56 88.1 No
10/23/2006 23:06:19 ASA146 ANC 10/23/2006 22:26:00 SCC 10/24/2006 00:00:00 B73Q 32000 430 65.5359 -149.144 9753.6 251.8 -50.4 -57.6 42.4 0.07 -50.56 97.2 No
10/23/2006 23:07:19 ASA146 ANC 10/23/2006 22:26:00 SCC 10/24/2006 00:00:00 B73Q 32000 430 65.6526 -149.127 9753.6 251.8 -50.4 -57.6 42.4 0.07 -50.56 107.2 No
10/23/2006 23:57:20 ASA162 FAI 10/23/2006 23:51:00 ANC 10/24/2006 00:42:00 B734 18800 340 64.4632 -148.547 5730.2 465.9 -36.7 -39.5 75.3 0.27 -42.17 54.7 No
10/23/2006 23:58:20 ASA162 FAI 10/23/2006 23:51:00 ANC 10/24/2006 00:42:00 B734 21600 360 64.3691 -148.675 6583.7 411.4 -43.4 -45.8 77.4 0.16 -43.26 66.7 Yes
10/23/2006 23:59:20 ASA162 FAI 10/23/2006 23:51:00 ANC 10/24/2006 00:42:00 B734 24400 370 64.2868 -148.831 7437.1 361.5 -50.6 -53.2 74.9 0.07 -44.83 78.5 Yes